
Distance (Route):
Temperature : 0°C
Humidity : 0%
Pressure : 0hPa| Receiver | Frames | First received | Last received |
|---|---|---|---|
| 9A1FER-3 | 324 | 2026-09-04 23:54:08 | 2026-09-05 01:19:50 |
| 9A1FER-10 | 258 | 2026-09-04 23:53:56 | 2026-09-05 01:19:50 |
| PETON7-10 | 80 | 2026-09-05 00:28:20 | 2026-09-05 00:50:01 |
| OM5KV | 27 | 2026-09-05 01:08:53 | 2026-09-05 01:11:18 |
| OE3JTB-15 | 1 | 2026-09-05 00:13:56 | 2026-09-05 00:13:56 |
| Receiver | Date | Latitude | Longitude | Direction | Speed | Altitude | Climb | Temperature | Humidity | Pressure | Voltage | Killtimer | Uptime | BKT | XDATA |
|---|---|---|---|---|---|---|---|---|---|---|---|---|---|---|---|
| 9A1FER-10 | 2026-09-05 01:19:50 | 46.03622 | 15.67727 | 111° | 31km/h | 1476m | -10.3m/s | 0°C | 0% | 0hPa | 0V | 00:00:00 | 00:00:00 | 00:00:00 | |
| 9A1FER-3 | 2026-09-05 01:19:50 | 46.03622 | 15.67727 | 111° | 35km/h | 1476m | -10.3m/s | 0°C | 0% | 0hPa | 0V | 00:00:00 | 00:00:00 | 00:00:00 | |
| 9A1FER-3 | 2026-09-05 01:19:44 | 46.03639 | 15.67655 | 113° | 29km/h | 1538m | -10.4m/s | 0°C | 0% | 0hPa | 0V | 00:00:00 | 00:00:00 | 00:00:00 | |
| 9A1FER-10 | 2026-09-05 01:19:41 | 46.03647 | 15.67623 | 104° | 27km/h | 1569m | -10.1m/s | 0°C | 0% | 0hPa | 0V | 00:00:00 | 00:00:00 | 00:00:00 | |
| 9A1FER-3 | 2026-09-05 01:19:38 | 46.03653 | 15.67594 | 102° | 27km/h | 1601m | -10.9m/s | 0°C | 0% | 0hPa | 0V | 00:00:00 | 00:00:00 | 00:00:00 | |
| 9A1FER-10 | 2026-09-05 01:19:36 | 46.03656 | 15.67575 | 102° | 27km/h | 1624m | -11.0m/s | 0°C | 0% | 0hPa | 0V | 00:00:00 | 00:00:00 | 00:00:00 | |
| 9A1FER-3 | 2026-09-05 01:19:33 | 46.03657 | 15.67544 | 91° | 27km/h | 1661m | -10.9m/s | 0°C | 0% | 0hPa | 0V | 00:00:00 | 00:00:00 | 00:00:00 | |
| 9A1FER-10 | 2026-09-05 01:19:31 | 46.03657 | 15.67525 | 91° | 27km/h | 1682m | -9.9m/s | 0°C | 0% | 0hPa | 0V | 00:00:00 | 00:00:00 | 00:00:00 | |
| 9A1FER-3 | 2026-09-05 01:19:28 | 46.03656 | 15.67493 | 89° | 27km/h | 1714m | -11.7m/s | 0°C | 0% | 0hPa | 0V | 00:00:00 | 00:00:00 | 00:00:00 | |
| 9A1FER-10 | 2026-09-05 01:19:26 | 46.03654 | 15.67473 | 82° | 29km/h | 1736m | -10.8m/s | 0°C | 0% | 0hPa | 0V | 00:00:00 | 00:00:00 | 00:00:00 | |
| 9A1FER-3 | 2026-09-05 01:19:23 | 46.03651 | 15.67442 | 78° | 26km/h | 1769m | -9.7m/s | 0°C | 0% | 0hPa | 0V | 00:00:00 | 00:00:00 | 00:00:00 | |
| 9A1FER-3 | 2026-09-05 01:19:17 | 46.03638 | 15.67386 | 75° | 27km/h | 1835m | -11.1m/s | 0°C | 0% | 0hPa | 0V | 00:00:00 | 00:00:00 | 00:00:00 | |
| 9A1FER-10 | 2026-09-05 01:19:16 | 46.03636 | 15.67377 | 69° | 27km/h | 1846m | -10.9m/s | 0°C | 0% | 0hPa | 0V | 00:00:00 | 00:00:00 | 00:00:00 | |
| 9A1FER-3 | 2026-09-05 01:19:12 | 46.03626 | 15.67339 | 70° | 26km/h | 1890m | -10.4m/s | 0°C | 0% | 0hPa | 0V | 00:00:00 | 00:00:00 | 00:00:00 | |
| 9A1FER-3 | 2026-09-05 01:19:05 | 46.03609 | 15.67282 | 63° | 26km/h | 1968m | -11.8m/s | 0°C | 0% | 0hPa | 0V | 00:00:00 | 00:00:00 | 00:00:00 | |
| 9A1FER-10 | 2026-09-05 01:19:03 | 46.03601 | 15.67264 | 48° | 27km/h | 1992m | -12.7m/s | 0°C | 0% | 0hPa | 0V | 00:00:00 | 00:00:00 | 00:00:00 | |
| 9A1FER-3 | 2026-09-05 01:18:58 | 46.03580 | 15.67228 | 52° | 26km/h | 2051m | -12.7m/s | 0°C | 0% | 0hPa | 0V | 00:00:00 | 00:00:00 | 00:00:00 | |
| 9A1FER-10 | 2026-09-05 01:18:53 | 46.03559 | 15.67189 | 47° | 26km/h | 2110m | -9.3m/s | 0°C | 0% | 0hPa | 0V | 00:00:00 | 00:00:00 | 00:00:00 | |
| 9A1FER-3 | 2026-09-05 01:18:48 | 46.03537 | 15.67154 | 47° | 26km/h | 2167m | -11.9m/s | 0°C | 0% | 0hPa | 0V | 00:00:00 | 00:00:00 | 00:00:00 | |
| 9A1FER-10 | 2026-09-05 01:18:43 | 46.03518 | 15.67118 | 55° | 27km/h | 2227m | -11.3m/s | 0°C | 0% | 0hPa | 0V | 00:00:00 | 00:00:00 | 00:00:00 | |
| 9A1FER-3 | 2026-09-05 01:18:38 | 46.03498 | 15.67081 | 53° | 27km/h | 2291m | -10.6m/s | 0°C | 0% | 0hPa | 0V | 00:00:00 | 00:00:00 | 00:00:00 | |
| 9A1FER-10 | 2026-09-05 01:18:33 | 46.03477 | 15.67045 | 48° | 26km/h | 2349m | -11.5m/s | 0°C | 0% | 0hPa | 0V | 00:00:00 | 00:00:00 | 00:00:00 | |
| 9A1FER-3 | 2026-09-05 01:18:28 | 46.03455 | 15.67010 | 48° | 24km/h | 2410m | -12.3m/s | 0°C | 0% | 0hPa | 0V | 00:00:00 | 00:00:00 | 00:00:00 | |
| 9A1FER-10 | 2026-09-05 01:18:23 | 46.03434 | 15.66978 | 50° | 24km/h | 2466m | -10.6m/s | 0°C | 0% | 0hPa | 0V | 00:00:00 | 00:00:00 | 00:00:00 | |
| 9A1FER-3 | 2026-09-05 01:18:18 | 46.03415 | 15.66946 | 49° | 26km/h | 2527m | -10.1m/s | 0°C | 0% | 0hPa | 0V | 00:00:00 | 00:00:00 | 00:00:00 | |
| 9A1FER-10 | 2026-09-05 01:18:13 | 46.03394 | 15.66913 | 49° | 24km/h | 2589m | -11.9m/s | 0°C | 0% | 0hPa | 0V | 00:00:00 | 00:00:00 | 00:00:00 | |
| 9A1FER-3 | 2026-09-05 01:18:08 | 46.03375 | 15.66878 | 55° | 24km/h | 2655m | -8.3m/s | 0°C | 0% | 0hPa | 0V | 00:00:00 | 00:00:00 | 00:00:00 | |
| 9A1FER-10 | 2026-09-05 01:18:02 | 46.03355 | 15.66837 | 57° | 24km/h | 2726m | -12.5m/s | 0°C | 0% | 0hPa | 0V | 00:00:00 | 00:00:00 | 00:00:00 | |
| 9A1FER-3 | 2026-09-05 01:17:58 | 46.03344 | 15.66807 | 63° | 24km/h | 2771m | -10.3m/s | 0°C | 0% | 0hPa | 0V | 00:00:00 | 00:00:00 | 00:00:00 | |
| 9A1FER-10 | 2026-09-05 01:17:51 | 46.03323 | 15.66754 | 55° | 24km/h | 2849m | -11.6m/s | 0°C | 0% | 0hPa | 0V | 00:00:00 | 00:00:00 | 00:00:00 | |
| 9A1FER-3 | 2026-09-05 01:17:48 | 46.03314 | 15.66732 | 65° | 24km/h | 2884m | -11.8m/s | 0°C | 0% | 0hPa | 0V | 00:00:00 | 00:00:00 | 00:00:00 | |
| 9A1FER-10 | 2026-09-05 01:17:41 | 46.03298 | 15.66675 | 69° | 22km/h | 2963m | -10.7m/s | 0°C | 0% | 0hPa | 0V | 00:00:00 | 00:00:00 | 00:00:00 | |
| 9A1FER-3 | 2026-09-05 01:17:38 | 46.03291 | 15.66651 | 64° | 20km/h | 2996m | -9.8m/s | 0°C | 0% | 0hPa | 0V | 00:00:00 | 00:00:00 | 00:00:00 | |
| 9A1FER-10 | 2026-09-05 01:17:31 | 46.03278 | 15.66603 | 71° | 18km/h | 3076m | -11.9m/s | 0°C | 0% | 0hPa | 0V | 00:00:00 | 00:00:00 | 00:00:00 | |
| 9A1FER-3 | 2026-09-05 01:17:24 | 46.03263 | 15.66561 | 74° | 20km/h | 3164m | -10.3m/s | 0°C | 0% | 0hPa | 0V | 00:00:00 | 00:00:00 | 00:00:00 | |
| 9A1FER-10 | 2026-09-05 01:17:16 | 46.03247 | 15.66508 | 76° | 20km/h | 3252m | -12.2m/s | 0°C | 0% | 0hPa | 0V | 00:00:00 | 00:00:00 | 00:00:00 | |
| 9A1FER-3 | 2026-09-05 01:17:09 | 46.03235 | 15.66462 | 74° | 20km/h | 3332m | -11.3m/s | 0°C | 0% | 0hPa | 0V | 00:00:00 | 00:00:00 | 00:00:00 | |
| 9A1FER-10 | 2026-09-05 01:17:00 | 46.03214 | 15.66402 | 58° | 22km/h | 3438m | -11.1m/s | 0°C | 0% | 0hPa | 0V | 00:00:00 | 00:00:00 | 00:00:00 | |
| 9A1FER-3 | 2026-09-05 01:16:54 | 46.03197 | 15.66366 | 50° | 22km/h | 3499m | -10.0m/s | 0°C | 0% | 0hPa | 0V | 00:00:00 | 00:00:00 | 00:00:00 | |
| 9A1FER-10 | 2026-09-05 01:16:46 | 46.03169 | 15.66309 | 51° | 22km/h | 3593m | -14.8m/s | 0°C | 0% | 0hPa | 0V | 00:00:00 | 00:00:00 | 00:00:00 | |
| 9A1FER-3 | 2026-09-05 01:16:39 | 46.03151 | 15.66274 | 59° | 22km/h | 3659m | -10.9m/s | 0°C | 0% | 0hPa | 0V | 00:00:00 | 00:00:00 | 00:00:00 | |
| 9A1FER-10 | 2026-09-05 01:16:30 | 46.03128 | 15.66210 | 61° | 24km/h | 3760m | -9.9m/s | 0°C | 0% | 0hPa | 0V | 00:00:00 | 00:00:00 | 00:00:00 | |
| 9A1FER-3 | 2026-09-05 01:16:24 | 46.03113 | 15.66164 | 69° | 26km/h | 3826m | -9.2m/s | 0°C | 0% | 0hPa | 0V | 00:00:00 | 00:00:00 | 00:00:00 | |
| 9A1FER-10 | 2026-09-05 01:16:15 | 46.03092 | 15.66085 | 73° | 27km/h | 3922m | -11.5m/s | 0°C | 0% | 0hPa | 0V | 00:00:00 | 00:00:00 | 00:00:00 | |
| 9A1FER-3 | 2026-09-05 01:16:09 | 46.03080 | 15.66030 | 72° | 31km/h | 3990m | -9.4m/s | 0°C | 0% | 0hPa | 0V | 00:00:00 | 00:00:00 | 00:00:00 | |
| 9A1FER-10 | 2026-09-05 01:16:00 | 46.03067 | 15.65944 | 62° | 33km/h | 4087m | -9.9m/s | 0°C | 0% | 0hPa | 0V | 00:00:00 | 00:00:00 | 00:00:00 | |
| 9A1FER-3 | 2026-09-05 01:15:54 | 46.03027 | 15.65883 | 62° | 33km/h | 4147m | -9.9m/s | 0°C | 0% | 0hPa | 0V | 00:00:00 | 00:00:00 | 00:00:00 | |
| 9A1FER-10 | 2026-09-05 01:15:45 | 46.02988 | 15.65789 | 62° | 35km/h | 4233m | -10.8m/s | 0°C | 0% | 0hPa | 0V | 00:00:00 | 00:00:00 | 00:00:00 | |
| 9A1FER-3 | 2026-09-05 01:15:39 | 46.02964 | 15.65725 | 60° | 37km/h | 4302m | -10.6m/s | 0°C | 0% | 0hPa | 0V | 00:00:00 | 00:00:00 | 00:00:00 | |
| 9A1FER-3 | 2026-09-05 01:15:24 | 46.02904 | 15.65549 | 70° | 38km/h | 4456m | -12.7m/s | 0°C | 0% | 0hPa | 0V | 00:00:00 | 00:00:00 | 00:00:00 | |
| 9A1FER-10 | 2026-09-05 01:15:15 | 46.02878 | 15.65427 | 78° | 40km/h | 4551m | -9.6m/s | 0°C | 0% | 0hPa | 0V | 00:00:00 | 00:00:00 | 00:00:00 | |
| 9A1FER-3 | 2026-09-05 01:15:09 | 46.02864 | 15.65346 | 82° | 42km/h | 4609m | -10.0m/s | 0°C | 0% | 0hPa | 0V | 00:00:00 | 00:00:00 | 00:00:00 | |
| 9A1FER-10 | 2026-09-05 01:15:00 | 46.02844 | 15.65211 | 75° | 44km/h | 4703m | -8.8m/s | 0°C | 0% | 0hPa | 0V | 00:00:00 | 00:00:00 | 00:00:00 | |
| 9A1FER-3 | 2026-09-05 01:14:54 | 46.02831 | 15.65119 | 78° | 46km/h | 4766m | -9.7m/s | 0°C | 0% | 0hPa | 0V | 00:00:00 | 00:00:00 | 00:00:00 | |
| 9A1FER-10 | 2026-09-05 01:14:45 | 46.02814 | 15.64970 | 82° | 47km/h | 4854m | -10.4m/s | 0°C | 0% | 0hPa | 0V | 00:00:00 | 00:00:00 | 00:00:00 | |
| 9A1FER-3 | 2026-09-05 01:14:40 | 46.02805 | 15.64867 | 77° | 49km/h | 4912m | -8.6m/s | 0°C | 0% | 0hPa | 0V | 00:00:00 | 00:00:00 | 00:00:00 | |
| 9A1FER-10 | 2026-09-05 01:14:30 | 46.02796 | 15.64709 | 90° | 49km/h | 4997m | -7.8m/s | 0°C | 0% | 0hPa | 0V | 00:00:00 | 00:00:00 | 00:00:00 | |
| 9A1FER-3 | 2026-09-05 01:14:24 | 46.02794 | 15.64599 | 86° | 49km/h | 5060m | -10.2m/s | 0°C | 0% | 0hPa | 0V | 00:00:00 | 00:00:00 | 00:00:00 | |
| 9A1FER-10 | 2026-09-05 01:14:15 | 46.02795 | 15.64437 | 96° | 51km/h | 5154m | -10.1m/s | 0°C | 0% | 0hPa | 0V | 00:00:00 | 00:00:00 | 00:00:00 | |
| 9A1FER-3 | 2026-09-05 01:14:09 | 46.02802 | 15.64328 | 95° | 49km/h | 5216m | -8.1m/s | 0°C | 0% | 0hPa | 0V | 00:00:00 | 00:00:00 | 00:00:00 | |
| 9A1FER-10 | 2026-09-05 01:14:00 | 46.02817 | 15.64164 | 93° | 51km/h | 5313m | -9.7m/s | 0°C | 0% | 0hPa | 0V | 00:00:00 | 00:00:00 | 00:00:00 | |
| 9A1FER-3 | 2026-09-05 01:13:54 | 46.02822 | 15.64057 | 94° | 53km/h | 5378m | -9.7m/s | 0°C | 0% | 0hPa | 0V | 00:00:00 | 00:00:00 | 00:00:00 | |
| 9A1FER-3 | 2026-09-05 01:13:39 | 46.02835 | 15.63768 | 93° | 57km/h | 5534m | -9.3m/s | 0°C | 0% | 0hPa | 0V | 00:00:00 | 00:00:00 | 00:00:00 | |
| 9A1FER-10 | 2026-09-05 01:13:30 | 46.02846 | 15.63581 | 100° | 57km/h | 5633m | -9.9m/s | 0°C | 0% | 0hPa | 0V | 00:00:00 | 00:00:00 | 00:00:00 | |
| 9A1FER-3 | 2026-09-05 01:13:24 | 46.02857 | 15.63459 | 95° | 55km/h | 5694m | -11.4m/s | 0°C | 0% | 0hPa | 0V | 00:00:00 | 00:00:00 | 00:00:00 | |
| 9A1FER-10 | 2026-09-05 01:13:15 | 46.02874 | 15.63280 | 98° | 53km/h | 5796m | -11.4m/s | 0°C | 0% | 0hPa | 0V | 00:00:00 | 00:00:00 | 00:00:00 | |
| 9A1FER-3 | 2026-09-05 01:13:09 | 46.02885 | 15.63163 | 97° | 53km/h | 5857m | -10.9m/s | 0°C | 0% | 0hPa | 0V | 00:00:00 | 00:00:00 | 00:00:00 | |
| 9A1FER-10 | 2026-09-05 01:13:00 | 46.02903 | 15.62989 | 102° | 53km/h | 5951m | -10.3m/s | 0°C | 0% | 0hPa | 0V | 00:00:00 | 00:00:00 | 00:00:00 | |
| 9A1FER-3 | 2026-09-05 01:12:54 | 46.02917 | 15.62874 | 97° | 53km/h | 6016m | -8.7m/s | 0°C | 0% | 0hPa | 0V | 00:00:00 | 00:00:00 | 00:00:00 | |
| 9A1FER-10 | 2026-09-05 01:12:45 | 46.02932 | 15.62707 | 98° | 55km/h | 6111m | -11.2m/s | 0°C | 0% | 0hPa | 0V | 00:00:00 | 00:00:00 | 00:00:00 | |
| 9A1FER-3 | 2026-09-05 01:12:37 | 46.02939 | 15.62550 | 92° | 55km/h | 6200m | -10.1m/s | 0°C | 0% | 0hPa | 0V | 00:00:00 | 00:00:00 | 00:00:00 | |
| 9A1FER-10 | 2026-09-05 01:12:30 | 46.02942 | 15.62413 | 92° | 57km/h | 6276m | -11.3m/s | 0°C | 0% | 0hPa | 0V | 00:00:00 | 00:00:00 | 00:00:00 | |
| 9A1FER-3 | 2026-09-05 01:12:22 | 46.02948 | 15.62248 | 93° | 57km/h | 6368m | -9.6m/s | 0°C | 0% | 0hPa | 0V | 00:00:00 | 00:00:00 | 00:00:00 | |
| 9A1FER-10 | 2026-09-05 01:12:15 | 46.02949 | 15.62103 | 90° | 58km/h | 6446m | -9.7m/s | 0°C | 0% | 0hPa | 0V | 00:00:00 | 00:00:00 | 00:00:00 | |
| 9A1FER-3 | 2026-09-05 01:12:07 | 46.02952 | 15.61938 | 94° | 62km/h | 6534m | -10.1m/s | 0°C | 0% | 0hPa | 0V | 00:00:00 | 00:00:00 | 00:00:00 | |
| 9A1FER-10 | 2026-09-05 01:12:00 | 46.02964 | 15.61786 | 98° | 66km/h | 6616m | -12.4m/s | 0°C | 0% | 0hPa | 0V | 00:00:00 | 00:00:00 | 00:00:00 | |
| 9A1FER-3 | 2026-09-05 01:11:52 | 46.02983 | 15.61601 | 98° | 66km/h | 6710m | -10.9m/s | 0°C | 0% | 0hPa | 0V | 00:00:00 | 00:00:00 | 00:00:00 | |
| 9A1FER-10 | 2026-09-05 01:11:45 | 46.02999 | 15.61434 | 97° | 66km/h | 6795m | -9.3m/s | 0°C | 0% | 0hPa | 0V | 00:00:00 | 00:00:00 | 00:00:00 | |
| 9A1FER-3 | 2026-09-05 01:11:37 | 46.03017 | 15.61245 | 98° | 64km/h | 6889m | -11.0m/s | 0°C | 0% | 0hPa | 0V | 00:00:00 | 00:00:00 | 00:00:00 | |
| 9A1FER-10 | 2026-09-05 01:11:30 | 46.03030 | 15.61078 | 95° | 64km/h | 6972m | -10.8m/s | 0°C | 0% | 0hPa | 0V | 00:00:00 | 00:00:00 | 00:00:00 | |
| 9A1FER-3 | 2026-09-05 01:11:22 | 46.03040 | 15.60893 | 97° | 66km/h | 7067m | -14.1m/s | 0°C | 0% | 0hPa | 0V | 00:00:00 | 00:00:00 | 00:00:00 | |
| OM5KV | 2026-09-05 01:11:18 | 46.03047 | 15.60801 | 99° | 69km/h | 7118m | -11.5m/s | 0°C | 0% | 0hPa | 0V | 00:00:00 | 00:00:00 | 00:00:00 | |
| 9A1FER-10 | 2026-09-05 01:11:15 | 46.03054 | 15.60728 | 98° | 68km/h | 7153m | -10.2m/s | 0°C | 0% | 0hPa | 0V | 00:00:00 | 00:00:00 | 00:00:00 | |
| OM5KV | 2026-09-05 01:11:12 | 46.03060 | 15.60655 | 98° | 66km/h | 7188m | -12.1m/s | 0°C | 0% | 0hPa | 0V | 00:00:00 | 00:00:00 | 00:00:00 | |
| 9A1FER-3 | 2026-09-05 01:11:07 | 46.03070 | 15.60536 | 97° | 68km/h | 7245m | -12.3m/s | 0°C | 0% | 0hPa | 0V | 00:00:00 | 00:00:00 | 00:00:00 | |
| OM5KV | 2026-09-05 01:11:04 | 46.03077 | 15.60464 | 99° | 69km/h | 7281m | -11.0m/s | 0°C | 0% | 0hPa | 0V | 00:00:00 | 00:00:00 | 00:00:00 | |
| 9A1FER-10 | 2026-09-05 01:11:00 | 46.03085 | 15.60367 | 98° | 68km/h | 7328m | -9.8m/s | 0°C | 0% | 0hPa | 0V | 00:00:00 | 00:00:00 | 00:00:00 | |
| OM5KV | 2026-09-05 01:10:59 | 46.03088 | 15.60343 | 99° | 69km/h | 7339m | -10.8m/s | 0°C | 0% | 0hPa | 0V | 00:00:00 | 00:00:00 | 00:00:00 | |
| OM5KV | 2026-09-05 01:10:57 | 46.03094 | 15.60269 | 98° | 68km/h | 7370m | -10.9m/s | 0°C | 0% | 0hPa | 0V | 00:00:00 | 00:00:00 | 00:00:00 | |
| OM5KV | 2026-09-05 01:10:49 | 46.03110 | 15.60100 | 100° | 66km/h | 7449m | -8.5m/s | 0°C | 0% | 0hPa | 0V | 00:00:00 | 00:00:00 | 00:00:00 | |
| 9A1FER-10 | 2026-09-05 01:10:45 | 46.03119 | 15.60001 | 98° | 69km/h | 7490m | -9.8m/s | 0°C | 0% | 0hPa | 0V | 00:00:00 | 00:00:00 | 00:00:00 | |
| OM5KV | 2026-09-05 01:10:43 | 46.03123 | 15.59951 | 100° | 69km/h | 7511m | -9.3m/s | 0°C | 0% | 0hPa | 0V | 00:00:00 | 00:00:00 | 00:00:00 | |
| OM5KV | 2026-09-05 01:10:39 | 46.03135 | 15.59849 | 98° | 69km/h | 7555m | -9.6m/s | 0°C | 0% | 0hPa | 0V | 00:00:00 | 00:00:00 | 00:00:00 | |
| 9A1FER-3 | 2026-09-05 01:10:36 | 46.03142 | 15.59773 | 100° | 69km/h | 7586m | -9.1m/s | 0°C | 0% | 0hPa | 0V | 00:00:00 | 00:00:00 | 00:00:00 | |
| OM5KV | 2026-09-05 01:10:31 | 46.03155 | 15.59645 | 100° | 69km/h | 7636m | -9.4m/s | 0°C | 0% | 0hPa | 0V | 00:00:00 | 00:00:00 | 00:00:00 | |
| 9A1FER-10 | 2026-09-05 01:10:30 | 46.03157 | 15.59619 | 99° | 69km/h | 7647m | -10.8m/s | 0°C | 0% | 0hPa | 0V | 00:00:00 | 00:00:00 | 00:00:00 | |
| 9A1FER-3 | 2026-09-05 01:10:21 | 46.03177 | 15.59393 | 97° | 69km/h | 7746m | -9.9m/s | 0°C | 0% | 0hPa | 0V | 00:00:00 | 00:00:00 | 00:00:00 | |
| OM5KV | 2026-09-05 01:10:18 | 46.03182 | 15.59319 | 96° | 68km/h | 7780m | -12.1m/s | 0°C | 0% | 0hPa | 0V | 00:00:00 | 00:00:00 | 00:00:00 | |
| 9A1FER-10 | 2026-09-05 01:10:15 | 46.03187 | 15.59244 | 97° | 69km/h | 7815m | -10.4m/s | 0°C | 0% | 0hPa | 0V | 00:00:00 | 00:00:00 | 00:00:00 | |
| OM5KV | 2026-09-05 01:10:13 | 46.03191 | 15.59196 | 97° | 68km/h | 7839m | -10.5m/s | 0°C | 0% | 0hPa | 0V | 00:00:00 | 00:00:00 | 00:00:00 | |
| OM5KV | 2026-09-05 01:10:07 | 46.03199 | 15.59046 | 93° | 68km/h | 7903m | -8.8m/s | 0°C | 0% | 0hPa | 0V | 00:00:00 | 00:00:00 | 00:00:00 | |
| 9A1FER-10 | 2026-09-05 01:10:00 | 46.03204 | 15.58870 | 95° | 69km/h | 7974m | -10.8m/s | 0°C | 0% | 0hPa | 0V | 00:00:00 | 00:00:00 | 00:00:00 | |
| OM5KV | 2026-09-05 01:09:59 | 46.03204 | 15.58844 | 92° | 69km/h | 7985m | -9.9m/s | 0°C | 0% | 0hPa | 0V | 00:00:00 | 00:00:00 | 00:00:00 | |
| OM5KV | 2026-09-05 01:09:54 | 46.03207 | 15.58715 | 95° | 75km/h | 8040m | -8.2m/s | 0°C | 0% | 0hPa | 0V | 00:00:00 | 00:00:00 | 00:00:00 | |
| OM5KV | 2026-09-05 01:09:53 | 46.03208 | 15.58689 | 94° | 68km/h | 8050m | -9.2m/s | 0°C | 0% | 0hPa | 0V | 00:00:00 | 00:00:00 | 00:00:00 | |
| 9A1FER-3 | 2026-09-05 01:09:51 | 46.03209 | 15.58639 | 91° | 69km/h | 8069m | -11.0m/s | 0°C | 0% | 0hPa | 0V | 00:00:00 | 00:00:00 | 00:00:00 | |
| OM5KV | 2026-09-05 01:09:48 | 46.03211 | 15.58563 | 91° | 71km/h | 8101m | -9.6m/s | 0°C | 0% | 0hPa | 0V | 00:00:00 | 00:00:00 | 00:00:00 | |
| 9A1FER-10 | 2026-09-05 01:09:45 | 46.03213 | 15.58487 | 92° | 71km/h | 8131m | -8.5m/s | 0°C | 0% | 0hPa | 0V | 00:00:00 | 00:00:00 | 00:00:00 | |
| OM5KV | 2026-09-05 01:09:43 | 46.03214 | 15.58437 | 92° | 68km/h | 8151m | -9.5m/s | 0°C | 0% | 0hPa | 0V | 00:00:00 | 00:00:00 | 00:00:00 | |
| OM5KV | 2026-09-05 01:09:40 | 46.03217 | 15.58360 | 95° | 75km/h | 8182m | -13.0m/s | 0°C | 0% | 0hPa | 0V | 00:00:00 | 00:00:00 | 00:00:00 | |
| 9A1FER-3 | 2026-09-05 01:09:36 | 46.03221 | 15.58257 | 92° | 73km/h | 8224m | -8.6m/s | 0°C | 0% | 0hPa | 0V | 00:00:00 | 00:00:00 | 00:00:00 | |
| OM5KV | 2026-09-05 01:09:33 | 46.03224 | 15.58179 | 93° | 71km/h | 8255m | -9.9m/s | 0°C | 0% | 0hPa | 0V | 00:00:00 | 00:00:00 | 00:00:00 | |
| 9A1FER-10 | 2026-09-05 01:09:30 | 46.03226 | 15.58099 | 91° | 77km/h | 8286m | -8.8m/s | 0°C | 0% | 0hPa | 0V | 00:00:00 | 00:00:00 | 00:00:00 | |
| OM5KV | 2026-09-05 01:09:28 | 46.03227 | 15.58045 | 93° | 77km/h | 8305m | -8.7m/s | 0°C | 0% | 0hPa | 0V | 00:00:00 | 00:00:00 | 00:00:00 | |
| OM5KV | 2026-09-05 01:09:27 | 46.03228 | 15.58017 | 94° | 77km/h | 8314m | -9.5m/s | 0°C | 0% | 0hPa | 0V | 00:00:00 | 00:00:00 | 00:00:00 | |
| OM5KV | 2026-09-05 01:09:23 | 46.03238 | 15.57879 | 93° | 77km/h | 8366m | -8.9m/s | 0°C | 0% | 0hPa | 0V | 00:00:00 | 00:00:00 | 00:00:00 | |
| 9A1FER-3 | 2026-09-05 01:09:20 | 46.03242 | 15.57822 | 97° | 78km/h | 8386m | -9.8m/s | 0°C | 0% | 0hPa | 0V | 00:00:00 | 00:00:00 | 00:00:00 | |
| OM5KV | 2026-09-05 01:09:18 | 46.03247 | 15.57738 | 99° | 75km/h | 8415m | -9.4m/s | 0°C | 0% | 0hPa | 0V | 00:00:00 | 00:00:00 | 00:00:00 | |
| 9A1FER-10 | 2026-09-05 01:09:15 | 46.03251 | 15.57682 | 96° | 80km/h | 8436m | -9.0m/s | 0°C | 0% | 0hPa | 0V | 00:00:00 | 00:00:00 | 00:00:00 | |
| OM5KV | 2026-09-05 01:09:14 | 46.03253 | 15.57653 | 96° | 78km/h | 8445m | -9.0m/s | 0°C | 0% | 0hPa | 0V | 00:00:00 | 00:00:00 | 00:00:00 | |
| OM5KV | 2026-09-05 01:09:10 | 46.03260 | 15.57539 | 98° | 80km/h | 8484m | -10.5m/s | 0°C | 0% | 0hPa | 0V | 00:00:00 | 00:00:00 | 00:00:00 | |
| 9A1FER-3 | 2026-09-05 01:09:04 | 46.03267 | 15.57363 | 92° | 77km/h | 8539m | -10.3m/s | 0°C | 0% | 0hPa | 0V | 00:00:00 | 00:00:00 | 00:00:00 | |
| 9A1FER-10 | 2026-09-05 01:09:00 | 46.03272 | 15.57246 | 96° | 77km/h | 8580m | -10.1m/s | 0°C | 0% | 0hPa | 0V | 00:00:00 | 00:00:00 | 00:00:00 | |
| OM5KV | 2026-09-05 01:08:58 | 46.03276 | 15.57189 | 97° | 80km/h | 8600m | -8.5m/s | 0°C | 0% | 0hPa | 0V | 00:00:00 | 00:00:00 | 00:00:00 | |
| OM5KV | 2026-09-05 01:08:53 | 46.03284 | 15.57049 | 94° | 77km/h | 8649m | -9.3m/s | 0°C | 0% | 0hPa | 0V | 00:00:00 | 00:00:00 | 00:00:00 | |
| 9A1FER-3 | 2026-09-05 01:08:47 | 46.03294 | 15.56881 | 96° | 75km/h | 8704m | -7.7m/s | 0°C | 0% | 0hPa | 0V | 00:00:00 | 00:00:00 | 00:00:00 | |
| 9A1FER-10 | 2026-09-05 01:08:45 | 46.03296 | 15.56827 | 95° | 75km/h | 8723m | -9.8m/s | 0°C | 0% | 0hPa | 0V | 00:00:00 | 00:00:00 | 00:00:00 | |
| 9A1FER-3 | 2026-09-05 01:08:31 | 46.03311 | 15.56447 | 93° | 78km/h | 8854m | -8.1m/s | 0°C | 0% | 0hPa | 0V | 00:00:00 | 00:00:00 | 00:00:00 | |
| 9A1FER-10 | 2026-09-05 01:08:30 | 46.03312 | 15.56419 | 95° | 77km/h | 8864m | -9.3m/s | 0°C | 0% | 0hPa | 0V | 00:00:00 | 00:00:00 | 00:00:00 | |
| 9A1FER-10 | 2026-09-05 01:08:15 | 46.03348 | 15.55998 | 97° | 78km/h | 9011m | -9.7m/s | 0°C | 0% | 0hPa | 0V | 00:00:00 | 00:00:00 | 00:00:00 | |
| 9A1FER-3 | 2026-09-05 01:08:14 | 46.03350 | 15.55969 | 99° | 78km/h | 9021m | -11.9m/s | 0°C | 0% | 0hPa | 0V | 00:00:00 | 00:00:00 | 00:00:00 | |
| 9A1FER-10 | 2026-09-05 01:08:00 | 46.03384 | 15.55578 | 97° | 78km/h | 9158m | -11.5m/s | 0°C | 0% | 0hPa | 0V | 00:00:00 | 00:00:00 | 00:00:00 | |
| 9A1FER-3 | 2026-09-05 01:07:59 | 46.03385 | 15.55549 | 93° | 78km/h | 9169m | -8.3m/s | 0°C | 0% | 0hPa | 0V | 00:00:00 | 00:00:00 | 00:00:00 | |
| 9A1FER-10 | 2026-09-05 01:07:45 | 46.03397 | 15.55151 | 94° | 80km/h | 9313m | -9.9m/s | 0°C | 0% | 0hPa | 0V | 00:00:00 | 00:00:00 | 00:00:00 | |
| 9A1FER-3 | 2026-09-05 01:07:44 | 46.03399 | 15.55122 | 95° | 80km/h | 9324m | -9.3m/s | 0°C | 0% | 0hPa | 0V | 00:00:00 | 00:00:00 | 00:00:00 | |
| 9A1FER-10 | 2026-09-05 01:07:30 | 46.03420 | 15.54713 | 92° | 78km/h | 9450m | -8.7m/s | 0°C | 0% | 0hPa | 0V | 00:00:00 | 00:00:00 | 00:00:00 | |
| 9A1FER-3 | 2026-09-05 01:07:28 | 46.03423 | 15.54655 | 94° | 78km/h | 9467m | -8.1m/s | 0°C | 0% | 0hPa | 0V | 00:00:00 | 00:00:00 | 00:00:00 | |
| 9A1FER-10 | 2026-09-05 01:07:16 | 46.03439 | 15.54284 | 92° | 77km/h | 9521m | -0.9m/s | 0°C | 0% | 0hPa | 0V | 00:00:00 | 00:00:00 | 00:00:00 | |
| 9A1FER-3 | 2026-09-05 01:07:13 | 46.03440 | 15.54229 | 93° | 77km/h | 9526m | -2.8m/s | 0°C | 0% | 0hPa | 0V | 00:00:00 | 00:00:00 | 00:00:00 | |
| 9A1FER-10 | 2026-09-05 01:07:00 | 46.03458 | 15.53870 | 90° | 78km/h | 9564m | -2.6m/s | 0°C | 0% | 0hPa | 0V | 00:00:00 | 00:00:00 | 00:00:00 | |
| 9A1FER-3 | 2026-09-05 01:06:58 | 46.03456 | 15.53816 | 91° | 80km/h | 9571m | -2.6m/s | 0°C | 0% | 0hPa | 0V | 00:00:00 | 00:00:00 | 00:00:00 | |
| 9A1FER-10 | 2026-09-05 01:06:45 | 46.03480 | 15.53447 | 95° | 78km/h | 9613m | -2.2m/s | 0°C | 0% | 0hPa | 0V | 00:00:00 | 00:00:00 | 00:00:00 | |
| 9A1FER-3 | 2026-09-05 01:06:43 | 46.03484 | 15.53392 | 98° | 78km/h | 9621m | -2.2m/s | 0°C | 0% | 0hPa | 0V | 00:00:00 | 00:00:00 | 00:00:00 | |
| 9A1FER-10 | 2026-09-05 01:06:30 | 46.03511 | 15.53021 | 96° | 78km/h | 9664m | -1.7m/s | 0°C | 0% | 0hPa | 0V | 00:00:00 | 00:00:00 | 00:00:00 | |
| 9A1FER-3 | 2026-09-05 01:06:28 | 46.03516 | 15.52965 | 99° | 80km/h | 9669m | -2.5m/s | 0°C | 0% | 0hPa | 0V | 00:00:00 | 00:00:00 | 00:00:00 | |
| 9A1FER-10 | 2026-09-05 01:06:15 | 46.03539 | 15.52590 | 94° | 78km/h | 9717m | -1.5m/s | 0°C | 0% | 0hPa | 0V | 00:00:00 | 00:00:00 | 00:00:00 | |
| 9A1FER-3 | 2026-09-05 01:06:13 | 46.03540 | 15.52531 | 89° | 78km/h | 9723m | -2.4m/s | 0°C | 0% | 0hPa | 0V | 00:00:00 | 00:00:00 | 00:00:00 | |
| 9A1FER-10 | 2026-09-05 01:06:00 | 46.03567 | 15.52164 | 100° | 80km/h | 9768m | -1.9m/s | 0°C | 0% | 0hPa | 0V | 00:00:00 | 00:00:00 | 00:00:00 | |
| 9A1FER-3 | 2026-09-05 01:05:58 | 46.03574 | 15.52106 | 99° | 80km/h | 9774m | -2.5m/s | 0°C | 0% | 0hPa | 0V | 00:00:00 | 00:00:00 | 00:00:00 | |
| 9A1FER-10 | 2026-09-05 01:05:45 | 46.03597 | 15.51728 | 96° | 80km/h | 9817m | -2.5m/s | 0°C | 0% | 0hPa | 0V | 00:00:00 | 00:00:00 | 00:00:00 | |
| 9A1FER-3 | 2026-09-05 01:05:43 | 46.03602 | 15.51669 | 96° | 80km/h | 9822m | -1.8m/s | 0°C | 0% | 0hPa | 0V | 00:00:00 | 00:00:00 | 00:00:00 | |
| 9A1FER-10 | 2026-09-05 01:05:30 | 46.03628 | 15.51290 | 96° | 84km/h | 9862m | -1.9m/s | 0°C | 0% | 0hPa | 0V | 00:00:00 | 00:00:00 | 00:00:00 | |
| 9A1FER-3 | 2026-09-05 01:05:28 | 46.03633 | 15.51232 | 100° | 84km/h | 9870m | -3.2m/s | 0°C | 0% | 0hPa | 0V | 00:00:00 | 00:00:00 | 00:00:00 | |
| 9A1FER-10 | 2026-09-05 01:05:15 | 46.03665 | 15.50841 | 94° | 84km/h | 9920m | -3.0m/s | 0°C | 0% | 0hPa | 0V | 00:00:00 | 00:00:00 | 00:00:00 | |
| 9A1FER-3 | 2026-09-05 01:05:13 | 46.03668 | 15.50780 | 96° | 82km/h | 9927m | -2.9m/s | 0°C | 0% | 0hPa | 0V | 00:00:00 | 00:00:00 | 00:00:00 | |
| 9A1FER-10 | 2026-09-05 01:05:00 | 46.03696 | 15.50386 | 95° | 84km/h | 9980m | -3.7m/s | 0°C | 0% | 0hPa | 0V | 00:00:00 | 00:00:00 | 00:00:00 | |
| 9A1FER-3 | 2026-09-05 01:04:58 | 46.03700 | 15.50329 | 97° | 84km/h | 9989m | -4.0m/s | 0°C | 0% | 0hPa | 0V | 00:00:00 | 00:00:00 | 00:00:00 | |
| 9A1FER-10 | 2026-09-05 01:04:45 | 46.03732 | 15.49931 | 98° | 86km/h | 10043m | -2.3m/s | 0°C | 0% | 0hPa | 0V | 00:00:00 | 00:00:00 | 00:00:00 | |
| 9A1FER-3 | 2026-09-05 01:04:43 | 46.03738 | 15.49870 | 99° | 86km/h | 10051m | -2.7m/s | 0°C | 0% | 0hPa | 0V | 00:00:00 | 00:00:00 | 00:00:00 | |
| 9A1FER-10 | 2026-09-05 01:04:30 | 46.03775 | 15.49464 | 97° | 89km/h | 10144m | -5.6m/s | 0°C | 0% | 0hPa | 0V | 00:00:00 | 00:00:00 | 00:00:00 | |
| 9A1FER-3 | 2026-09-05 01:04:28 | 46.03781 | 15.49399 | 98° | 89km/h | 10159m | -8.0m/s | 0°C | 0% | 0hPa | 0V | 00:00:00 | 00:00:00 | 00:00:00 | |
| 9A1FER-10 | 2026-09-05 01:04:15 | 46.03820 | 15.48980 | 97° | 89km/h | 10264m | -7.5m/s | 0°C | 0% | 0hPa | 0V | 00:00:00 | 00:00:00 | 00:00:00 | |
| 9A1FER-3 | 2026-09-05 01:04:13 | 46.03825 | 15.48914 | 98° | 88km/h | 10281m | -5.3m/s | 0°C | 0% | 0hPa | 0V | 00:00:00 | 00:00:00 | 00:00:00 | |
| 9A1FER-10 | 2026-09-05 01:04:00 | 46.03862 | 15.48517 | 96° | 89km/h | 10402m | -10.0m/s | 0°C | 0% | 0hPa | 0V | 00:00:00 | 00:00:00 | 00:00:00 | |
| 9A1FER-3 | 2026-09-05 01:03:58 | 46.03867 | 15.48434 | 98° | 89km/h | 10425m | -12.0m/s | 0°C | 0% | 0hPa | 0V | 00:00:00 | 00:00:00 | 00:00:00 | |
| 9A1FER-10 | 2026-09-05 01:03:45 | 46.03900 | 15.48009 | 95° | 93km/h | 10580m | -12.0m/s | 0°C | 0% | 0hPa | 0V | 00:00:00 | 00:00:00 | 00:00:00 | |
| 9A1FER-3 | 2026-09-05 01:03:43 | 46.03904 | 15.47943 | 95° | 93km/h | 10605m | -11.3m/s | 0°C | 0% | 0hPa | 0V | 00:00:00 | 00:00:00 | 00:00:00 | |
| 9A1FER-10 | 2026-09-05 01:03:30 | 46.03938 | 15.47508 | 96° | 91km/h | 10752m | -8.8m/s | 0°C | 0% | 0hPa | 0V | 00:00:00 | 00:00:00 | 00:00:00 | |
| 9A1FER-3 | 2026-09-05 01:03:27 | 46.03945 | 15.47408 | 96° | 91km/h | 10781m | -9.1m/s | 0°C | 0% | 0hPa | 0V | 00:00:00 | 00:00:00 | 00:00:00 | |
| 9A1FER-10 | 2026-09-05 01:03:15 | 46.03965 | 15.47014 | 92° | 89km/h | 10903m | -8.5m/s | 0°C | 0% | 0hPa | 0V | 00:00:00 | 00:00:00 | 00:00:00 | |
| 9A1FER-3 | 2026-09-05 01:03:12 | 46.03966 | 15.46915 | 92° | 89km/h | 10930m | -7.7m/s | 0°C | 0% | 0hPa | 0V | 00:00:00 | 00:00:00 | 00:00:00 | |
| 9A1FER-10 | 2026-09-05 01:03:00 | 46.03962 | 15.46525 | 87° | 91km/h | 11040m | -9.2m/s | 0°C | 0% | 0hPa | 0V | 00:00:00 | 00:00:00 | 00:00:00 | |
| 9A1FER-3 | 2026-09-05 01:02:56 | 46.03960 | 15.46397 | 91° | 91km/h | 11081m | -9.6m/s | 0°C | 0% | 0hPa | 0V | 00:00:00 | 00:00:00 | 00:00:00 | |
| 9A1FER-10 | 2026-09-05 01:02:45 | 46.03968 | 15.46026 | 92° | 93km/h | 11193m | -12.0m/s | 0°C | 0% | 0hPa | 0V | 00:00:00 | 00:00:00 | 00:00:00 | |
| 9A1FER-3 | 2026-09-05 01:02:41 | 46.03970 | 15.45892 | 90° | 93km/h | 11238m | -10.1m/s | 0°C | 0% | 0hPa | 0V | 00:00:00 | 00:00:00 | 00:00:00 | |
| 9A1FER-10 | 2026-09-05 01:02:30 | 46.03969 | 15.45522 | 89° | 89km/h | 11343m | -8.1m/s | 0°C | 0% | 0hPa | 0V | 00:00:00 | 00:00:00 | 00:00:00 | |
| 9A1FER-3 | 2026-09-05 01:02:26 | 46.03966 | 15.45391 | 88° | 88km/h | 11377m | -8.1m/s | 0°C | 0% | 0hPa | 0V | 00:00:00 | 00:00:00 | 00:00:00 | |
| 9A1FER-10 | 2026-09-05 01:02:15 | 46.03955 | 15.45027 | 87° | 88km/h | 11467m | -7.6m/s | 0°C | 0% | 0hPa | 0V | 00:00:00 | 00:00:00 | 00:00:00 | |
| 9A1FER-3 | 2026-09-05 01:02:04 | 46.03939 | 15.44678 | 86° | 88km/h | 11566m | -8.3m/s | 0°C | 0% | 0hPa | 0V | 00:00:00 | 00:00:00 | 00:00:00 | |
| 9A1FER-10 | 2026-09-05 01:02:00 | 46.03933 | 15.44552 | 85° | 89km/h | 11607m | -10.1m/s | 0°C | 0% | 0hPa | 0V | 00:00:00 | 00:00:00 | 00:00:00 | |
| 9A1FER-3 | 2026-09-05 01:01:49 | 46.03913 | 15.44195 | 86° | 88km/h | 11723m | -9.4m/s | 0°C | 0% | 0hPa | 0V | 00:00:00 | 00:00:00 | 00:00:00 | |
| 9A1FER-10 | 2026-09-05 01:01:45 | 46.03906 | 15.44066 | 87° | 88km/h | 11768m | -9.9m/s | 0°C | 0% | 0hPa | 0V | 00:00:00 | 00:00:00 | 00:00:00 | |
| 9A1FER-3 | 2026-09-05 01:01:34 | 46.03887 | 15.43717 | 86° | 86km/h | 11889m | -10.5m/s | 0°C | 0% | 0hPa | 0V | 00:00:00 | 00:00:00 | 00:00:00 | |
| 9A1FER-10 | 2026-09-05 01:01:30 | 46.03878 | 15.43591 | 84° | 86km/h | 11932m | -10.2m/s | 0°C | 0% | 0hPa | 0V | 00:00:00 | 00:00:00 | 00:00:00 | |
| 9A1FER-3 | 2026-09-05 01:01:19 | 46.03853 | 15.43248 | 83° | 84km/h | 12051m | -9.9m/s | 0°C | 0% | 0hPa | 0V | 00:00:00 | 00:00:00 | 00:00:00 | |
| 9A1FER-10 | 2026-09-05 01:01:15 | 46.03842 | 15.43124 | 83° | 86km/h | 12096m | -9.7m/s | 0°C | 0% | 0hPa | 0V | 00:00:00 | 00:00:00 | 00:00:00 | |
| 9A1FER-3 | 2026-09-05 01:01:03 | 46.03802 | 15.42758 | 83° | 88km/h | 12229m | -10.1m/s | 0°C | 0% | 0hPa | 0V | 00:00:00 | 00:00:00 | 00:00:00 | |
| 9A1FER-10 | 2026-09-05 01:01:00 | 46.03794 | 15.42663 | 85° | 88km/h | 12259m | -8.8m/s | 0°C | 0% | 0hPa | 0V | 00:00:00 | 00:00:00 | 00:00:00 | |
| 9A1FER-3 | 2026-09-05 01:00:47 | 46.03765 | 15.42250 | 85° | 89km/h | 12400m | -9.7m/s | 0°C | 0% | 0hPa | 0V | 00:00:00 | 00:00:00 | 00:00:00 | |
| 9A1FER-10 | 2026-09-05 01:00:46 | 46.03762 | 15.42185 | 87° | 91km/h | 12422m | -10.9m/s | 0°C | 0% | 0hPa | 0V | 00:00:00 | 00:00:00 | 00:00:00 | |
| 9A1FER-3 | 2026-09-05 01:00:32 | 46.03748 | 15.41754 | 89° | 93km/h | 12564m | -10.0m/s | 0°C | 0% | 0hPa | 0V | 00:00:00 | 00:00:00 | 00:00:00 | |
| 9A1FER-10 | 2026-09-05 01:00:30 | 46.03746 | 15.41687 | 90° | 93km/h | 12586m | -10.1m/s | 0°C | 0% | 0hPa | 0V | 00:00:00 | 00:00:00 | 00:00:00 | |
| 9A1FER-3 | 2026-09-05 01:00:17 | 46.03742 | 15.41176 | 88° | 93km/h | 12755m | -10.3m/s | 0°C | 0% | 0hPa | 0V | 00:00:00 | 00:00:00 | 00:00:00 | |
| 9A1FER-10 | 2026-09-05 01:00:00 | 46.03740 | 15.40666 | 93° | 95km/h | 12917m | -9.7m/s | 0°C | 0% | 0hPa | 0V | 00:00:00 | 00:00:00 | 00:00:00 | |
| 9A1FER-3 | 2026-09-05 00:59:45 | 46.03756 | 15.40146 | 94° | 99km/h | 13083m | -8.8m/s | 0°C | 0% | 0hPa | 0V | 00:00:00 | 00:00:00 | 00:00:00 | |
| 9A1FER-3 | 2026-09-05 00:59:30 | 46.03784 | 15.39610 | 95° | 97km/h | 13250m | -10.3m/s | 0°C | 0% | 0hPa | 0V | 00:00:00 | 00:00:00 | 00:00:00 | |
| 9A1FER-10 | 2026-09-05 00:59:16 | 46.03813 | 15.39088 | 95° | 95km/h | 13423m | -10.7m/s | 0°C | 0% | 0hPa | 0V | 00:00:00 | 00:00:00 | 00:00:00 | |
| 9A1FER-3 | 2026-09-05 00:59:00 | 46.03821 | 15.38577 | 90° | 91km/h | 13594m | -11.1m/s | 0°C | 0% | 0hPa | 0V | 00:00:00 | 00:00:00 | 00:00:00 | |
| 9A1FER-10 | 2026-09-05 00:58:45 | 46.03836 | 15.38077 | 94° | 88km/h | 13772m | -11.3m/s | 0°C | 0% | 0hPa | 0V | 00:00:00 | 00:00:00 | 00:00:00 | |
| 9A1FER-3 | 2026-09-05 00:58:44 | 46.03837 | 15.38045 | 94° | 86km/h | 13785m | -11.6m/s | 0°C | 0% | 0hPa | 0V | 00:00:00 | 00:00:00 | 00:00:00 | |
| 9A1FER-10 | 2026-09-05 00:58:30 | 46.03839 | 15.37602 | 90° | 77km/h | 13965m | -12.0m/s | 0°C | 0% | 0hPa | 0V | 00:00:00 | 00:00:00 | 00:00:00 | |
| 9A1FER-10 | 2026-09-05 00:58:15 | 46.03839 | 15.37189 | 90° | 53km/h | 14135m | -11.4m/s | 0°C | 0% | 0hPa | 0V | 00:00:00 | 00:00:00 | 00:00:00 | |
| 9A1FER-3 | 2026-09-05 00:58:14 | 46.03839 | 15.37167 | 92° | 53km/h | 14147m | -13.2m/s | 0°C | 0% | 0hPa | 0V | 00:00:00 | 00:00:00 | 00:00:00 | |
| 9A1FER-10 | 2026-09-05 00:58:00 | 46.03816 | 15.36904 | 75° | 51km/h | 14309m | -11.3m/s | 0°C | 0% | 0hPa | 0V | 00:00:00 | 00:00:00 | 00:00:00 | |
| 9A1FER-3 | 2026-09-05 00:57:59 | 46.03813 | 15.36887 | 76° | 53km/h | 14321m | -10.2m/s | 0°C | 0% | 0hPa | 0V | 00:00:00 | 00:00:00 | 00:00:00 | |
| 9A1FER-10 | 2026-09-05 00:57:45 | 46.03757 | 15.36634 | 71° | 60km/h | 14502m | -10.2m/s | 0°C | 0% | 0hPa | 0V | 00:00:00 | 00:00:00 | 00:00:00 | |
| 9A1FER-3 | 2026-09-05 00:57:44 | 46.03752 | 15.36615 | 69° | 60km/h | 14515m | -11.0m/s | 0°C | 0% | 0hPa | 0V | 00:00:00 | 00:00:00 | 00:00:00 | |
| 9A1FER-10 | 2026-09-05 00:57:30 | 46.03696 | 15.36319 | 87° | 62km/h | 14682m | -11.6m/s | 0°C | 0% | 0hPa | 0V | 00:00:00 | 00:00:00 | 00:00:00 | |
| 9A1FER-3 | 2026-09-05 00:57:29 | 46.03695 | 15.36297 | 88° | 62km/h | 14695m | -11.2m/s | 0°C | 0% | 0hPa | 0V | 00:00:00 | 00:00:00 | 00:00:00 | |
| 9A1FER-10 | 2026-09-05 00:57:15 | 46.03690 | 15.35981 | 91° | 60km/h | 14868m | -11.2m/s | 0°C | 0% | 0hPa | 0V | 00:00:00 | 00:00:00 | 00:00:00 | |
| 9A1FER-3 | 2026-09-05 00:57:14 | 46.03690 | 15.35958 | 91° | 60km/h | 14881m | -11.0m/s | 0°C | 0% | 0hPa | 0V | 00:00:00 | 00:00:00 | 00:00:00 | |
| 9A1FER-10 | 2026-09-05 00:57:00 | 46.03698 | 15.35652 | 94° | 66km/h | 15054m | -11.5m/s | 0°C | 0% | 0hPa | 0V | 00:00:00 | 00:00:00 | 00:00:00 | |
| 9A1FER-3 | 2026-09-05 00:56:59 | 46.03699 | 15.35630 | 95° | 66km/h | 15066m | -11.6m/s | 0°C | 0% | 0hPa | 0V | 00:00:00 | 00:00:00 | 00:00:00 | |
| 9A1FER-10 | 2026-09-05 00:56:45 | 46.03757 | 15.35308 | 114° | 62km/h | 15246m | -10.8m/s | 0°C | 0% | 0hPa | 0V | 00:00:00 | 00:00:00 | 00:00:00 | |
| 9A1FER-3 | 2026-09-05 00:56:44 | 46.03763 | 15.35286 | 110° | 62km/h | 15258m | -11.8m/s | 0°C | 0% | 0hPa | 0V | 00:00:00 | 00:00:00 | 00:00:00 | |
| 9A1FER-10 | 2026-09-05 00:56:30 | 46.03832 | 15.34986 | 107° | 60km/h | 15426m | -10.7m/s | 0°C | 0% | 0hPa | 0V | 00:00:00 | 00:00:00 | 00:00:00 | |
| 9A1FER-3 | 2026-09-05 00:56:29 | 46.03836 | 15.34966 | 107° | 60km/h | 15439m | -10.8m/s | 0°C | 0% | 0hPa | 0V | 00:00:00 | 00:00:00 | 00:00:00 | |
| 9A1FER-10 | 2026-09-05 00:56:15 | 46.03893 | 15.34669 | 105° | 64km/h | 15598m | -10.2m/s | 0°C | 0% | 0hPa | 0V | 00:00:00 | 00:00:00 | 00:00:00 | |
| 9A1FER-3 | 2026-09-05 00:56:14 | 46.03897 | 15.34647 | 111° | 62km/h | 15608m | -9.5m/s | 0°C | 0% | 0hPa | 0V | 00:00:00 | 00:00:00 | 00:00:00 | |
| 9A1FER-10 | 2026-09-05 00:56:00 | 46.03970 | 15.34346 | 110° | 64km/h | 15767m | -11.1m/s | 0°C | 0% | 0hPa | 0V | 00:00:00 | 00:00:00 | 00:00:00 | |
| 9A1FER-3 | 2026-09-05 00:55:59 | 46.03976 | 15.34325 | 113° | 64km/h | 15778m | -9.6m/s | 0°C | 0% | 0hPa | 0V | 00:00:00 | 00:00:00 | 00:00:00 | |
| 9A1FER-3 | 2026-09-05 00:55:44 | 46.04090 | 15.34015 | 128° | 57km/h | 15948m | -11.2m/s | 0°C | 0% | 0hPa | 0V | 00:00:00 | 00:00:00 | 00:00:00 | |
| 9A1FER-3 | 2026-09-05 00:55:29 | 46.04195 | 15.33754 | 116° | 37km/h | 16122m | -10.3m/s | 0°C | 0% | 0hPa | 0V | 00:00:00 | 00:00:00 | 00:00:00 | |
| 9A1FER-10 | 2026-09-05 00:55:26 | 46.04208 | 15.33712 | 115° | 31km/h | 16157m | -10.3m/s | 0°C | 0% | 0hPa | 0V | 00:00:00 | 00:00:00 | 00:00:00 | |
| 9A1FER-3 | 2026-09-05 00:55:14 | 46.04238 | 15.33566 | 98° | 29km/h | 16292m | -10.2m/s | 0°C | 0% | 0hPa | 0V | 00:00:00 | 00:00:00 | 00:00:00 | |
| 9A1FER-10 | 2026-09-05 00:55:11 | 46.04240 | 15.33535 | 94° | 33km/h | 16324m | -10.2m/s | 0°C | 0% | 0hPa | 0V | 00:00:00 | 00:00:00 | 00:00:00 | |
| 9A1FER-3 | 2026-09-05 00:54:59 | 46.04232 | 15.33404 | 92° | 35km/h | 16454m | -10.4m/s | 0°C | 0% | 0hPa | 0V | 00:00:00 | 00:00:00 | 00:00:00 | |
| 9A1FER-10 | 2026-09-05 00:54:47 | 46.04248 | 15.33257 | 105° | 33km/h | 16584m | -10.5m/s | 0°C | 0% | 0hPa | 0V | 00:00:00 | 00:00:00 | 00:00:00 | |
| 9A1FER-3 | 2026-09-05 00:54:44 | 46.04255 | 15.33221 | 110° | 33km/h | 16616m | -10.2m/s | 0°C | 0% | 0hPa | 0V | 00:00:00 | 00:00:00 | 00:00:00 | |
| 9A1FER-10 | 2026-09-05 00:54:31 | 46.04262 | 15.33066 | 84° | 46km/h | 16766m | -10.1m/s | 0°C | 0% | 0hPa | 0V | 00:00:00 | 00:00:00 | 00:00:00 | |
| 9A1FER-3 | 2026-09-05 00:54:29 | 46.04260 | 15.33041 | 84° | 47km/h | 16790m | -11.0m/s | 0°C | 0% | 0hPa | 0V | 00:00:00 | 00:00:00 | 00:00:00 | |
| 9A1FER-10 | 2026-09-05 00:54:11 | 46.04218 | 15.32733 | 85° | 47km/h | 17002m | -11.8m/s | 0°C | 0% | 0hPa | 0V | 00:00:00 | 00:00:00 | 00:00:00 | |
| 9A1FER-3 | 2026-09-05 00:53:59 | 46.04230 | 15.32522 | 99° | 40km/h | 17151m | -11.3m/s | 0°C | 0% | 0hPa | 0V | 00:00:00 | 00:00:00 | 00:00:00 | |
| 9A1FER-10 | 2026-09-05 00:53:56 | 46.04236 | 15.32477 | 102° | 40km/h | 17188m | -10.8m/s | 0°C | 0% | 0hPa | 0V | 00:00:00 | 00:00:00 | 00:00:00 | |
| 9A1FER-3 | 2026-09-05 00:53:44 | 46.04255 | 15.32308 | 97° | 37km/h | 17336m | -12.5m/s | 0°C | 0% | 0hPa | 0V | 00:00:00 | 00:00:00 | 00:00:00 | |
| 9A1FER-10 | 2026-09-05 00:53:39 | 46.04256 | 15.32241 | 88° | 38km/h | 17398m | -11.8m/s | 0°C | 0% | 0hPa | 0V | 00:00:00 | 00:00:00 | 00:00:00 | |
| 9A1FER-3 | 2026-09-05 00:53:29 | 46.04246 | 15.32103 | 82° | 33km/h | 17528m | -11.5m/s | 0°C | 0% | 0hPa | 0V | 00:00:00 | 00:00:00 | 00:00:00 | |
| 9A1FER-10 | 2026-09-05 00:53:24 | 46.04243 | 15.32039 | 86° | 31km/h | 17592m | -12.4m/s | 0°C | 0% | 0hPa | 0V | 00:00:00 | 00:00:00 | 00:00:00 | |
| 9A1FER-3 | 2026-09-05 00:53:14 | 46.04248 | 15.31931 | 90° | 22km/h | 17724m | -13.5m/s | 0°C | 0% | 0hPa | 0V | 00:00:00 | 00:00:00 | 00:00:00 | |
| 9A1FER-10 | 2026-09-05 00:53:09 | 46.04252 | 15.31891 | 102° | 27km/h | 17789m | -12.6m/s | 0°C | 0% | 0hPa | 0V | 00:00:00 | 00:00:00 | 00:00:00 | |
| 9A1FER-3 | 2026-09-05 00:52:59 | 46.04249 | 15.31817 | 79° | 22km/h | 17930m | -13.7m/s | 0°C | 0% | 0hPa | 0V | 00:00:00 | 00:00:00 | 00:00:00 | |
| 9A1FER-3 | 2026-09-05 00:52:44 | 46.04252 | 15.31707 | 85° | 20km/h | 18161m | -13.9m/s | 0°C | 0% | 0hPa | 0V | 00:00:00 | 00:00:00 | 00:00:00 | |
| 9A1FER-3 | 2026-09-05 00:52:29 | 46.04216 | 15.31614 | 56° | 27km/h | 18385m | -12.8m/s | 0°C | 0% | 0hPa | 0V | 00:00:00 | 00:00:00 | 00:00:00 | |
| 9A1FER-3 | 2026-09-05 00:52:14 | 46.04162 | 15.31490 | 74° | 35km/h | 18606m | -13.4m/s | 0°C | 0% | 0hPa | 0V | 00:00:00 | 00:00:00 | 00:00:00 | |
| 9A1FER-3 | 2026-09-05 00:51:59 | 46.04151 | 15.31300 | 99° | 29km/h | 18824m | -12.8m/s | 0°C | 0% | 0hPa | 0V | 00:00:00 | 00:00:00 | 00:00:00 | |
| 9A1FER-3 | 2026-09-05 00:51:43 | 46.04161 | 15.31134 | 81° | 29km/h | 19055m | -13.2m/s | 0°C | 0% | 0hPa | 0V | 00:00:00 | 00:00:00 | 00:00:00 | |
| 9A1FER-3 | 2026-09-05 00:51:28 | 46.04135 | 15.30975 | 83° | 35km/h | 19263m | -12.1m/s | 0°C | 0% | 0hPa | 0V | 00:00:00 | 00:00:00 | 00:00:00 | |
| 9A1FER-10 | 2026-09-05 00:51:15 | 46.04143 | 15.30812 | 104° | 35km/h | 19445m | -11.4m/s | 0°C | 0% | 0hPa | 0V | 00:00:00 | 00:00:00 | 00:00:00 | |
| 9A1FER-3 | 2026-09-05 00:51:13 | 46.04147 | 15.30791 | 104° | 33km/h | 19470m | -12.0m/s | 0°C | 0% | 0hPa | 0V | 00:00:00 | 00:00:00 | 00:00:00 | |
| 9A1FER-3 | 2026-09-05 00:50:59 | 46.04200 | 15.30625 | 114° | 22km/h | 19661m | -11.4m/s | 0°C | 0% | 0hPa | 0V | 00:00:00 | 00:00:00 | 00:00:00 | |
| 9A1FER-3 | 2026-09-05 00:50:43 | 46.04234 | 15.30523 | 101° | 26km/h | 19854m | -12.6m/s | 0°C | 0% | 0hPa | 0V | 00:00:00 | 00:00:00 | 00:00:00 | |
| 9A1FER-3 | 2026-09-05 00:50:28 | 46.04274 | 15.30400 | 109° | 18km/h | 20074m | -16.5m/s | 0°C | 0% | 0hPa | 0V | 00:00:00 | 00:00:00 | 00:00:00 | |
| 9A1FER-3 | 2026-09-05 00:50:11 | 46.04306 | 15.30311 | 305° | 7km/h | 20386m | -18.8m/s | 0°C | 0% | 0hPa | 0V | 00:00:00 | 00:00:00 | 00:00:00 | |
| PETON7-10 | 2026-09-05 00:50:01 | 46.04295 | 15.30309 | 52° | 13km/h | 20560m | -12.5m/s | 0°C | 0% | 0hPa | 0V | 00:00:00 | 00:00:00 | 00:00:00 | |
| 9A1FER-3 | 2026-09-05 00:49:56 | 46.04292 | 15.30293 | 126° | 15km/h | 20627m | -11.6m/s | 0°C | 0% | 0hPa | 0V | 00:00:00 | 00:00:00 | 00:00:00 | |
| 9A1FER-10 | 2026-09-05 00:49:50 | 46.04293 | 15.30270 | 87° | 18km/h | 20696m | -8.4m/s | 0°C | 0% | 0hPa | 0V | 00:00:00 | 00:00:00 | 00:00:00 | |
| PETON7-10 | 2026-09-05 00:49:42 | 46.04288 | 15.30222 | 100° | 15km/h | 20786m | -11.1m/s | 0°C | 0% | 0hPa | 0V | 00:00:00 | 00:00:00 | 00:00:00 | |
| 9A1FER-3 | 2026-09-05 00:49:41 | 46.04289 | 15.30217 | 119° | 20km/h | 20797m | -11.4m/s | 0°C | 0% | 0hPa | 0V | 00:00:00 | 00:00:00 | 00:00:00 | |
| 9A1FER-3 | 2026-09-05 00:49:26 | 46.04334 | 15.30140 | 136° | 11km/h | 21008m | -14.1m/s | 0°C | 0% | 0hPa | 0V | 00:00:00 | 00:00:00 | 00:00:00 | |
| 9A1FER-10 | 2026-09-05 00:49:18 | 46.04362 | 15.30133 | 137° | 9km/h | 21137m | -14.6m/s | 0°C | 0% | 0hPa | 0V | 00:00:00 | 00:00:00 | 00:00:00 | |
| 9A1FER-3 | 2026-09-05 00:49:11 | 46.04359 | 15.30127 | 261° | 9km/h | 21224m | -10.6m/s | 0°C | 0% | 0hPa | 0V | 00:00:00 | 00:00:00 | 00:00:00 | |
| PETON7-10 | 2026-09-05 00:49:10 | 46.04360 | 15.30130 | 235° | 13km/h | 21235m | -9.7m/s | 0°C | 0% | 0hPa | 0V | 00:00:00 | 00:00:00 | 00:00:00 | |
| 9A1FER-10 | 2026-09-05 00:49:03 | 46.04351 | 15.30122 | 1° | 9km/h | 21309m | -10.3m/s | 0°C | 0% | 0hPa | 0V | 00:00:00 | 00:00:00 | 00:00:00 | |
| 9A1FER-3 | 2026-09-05 00:48:56 | 46.04345 | 15.30131 | 110° | 9km/h | 21390m | -11.6m/s | 0°C | 0% | 0hPa | 0V | 00:00:00 | 00:00:00 | 00:00:00 | |
| PETON7-10 | 2026-09-05 00:48:54 | 46.04347 | 15.30128 | 143° | 9km/h | 21413m | -11.3m/s | 0°C | 0% | 0hPa | 0V | 00:00:00 | 00:00:00 | 00:00:00 | |
| 9A1FER-10 | 2026-09-05 00:48:44 | 46.04368 | 15.30109 | 161° | 5km/h | 21538m | -11.3m/s | 0°C | 0% | 0hPa | 0V | 00:00:00 | 00:00:00 | 00:00:00 | |
| 9A1FER-3 | 2026-09-05 00:48:41 | 46.04374 | 15.30104 | 145° | 5km/h | 21573m | -10.8m/s | 0°C | 0% | 0hPa | 0V | 00:00:00 | 00:00:00 | 00:00:00 | |
| PETON7-10 | 2026-09-05 00:48:37 | 46.04380 | 15.30102 | 180° | 5km/h | 21624m | -11.8m/s | 0°C | 0% | 0hPa | 0V | 00:00:00 | 00:00:00 | 00:00:00 | |
| 9A1FER-10 | 2026-09-05 00:48:29 | 46.04394 | 15.30103 | 182° | 4km/h | 21729m | -12.2m/s | 0°C | 0% | 0hPa | 0V | 00:00:00 | 00:00:00 | 00:00:00 | |
| 9A1FER-3 | 2026-09-05 00:48:26 | 46.04397 | 15.30103 | 237° | 4km/h | 21769m | -12.3m/s | 0°C | 0% | 0hPa | 0V | 00:00:00 | 00:00:00 | 00:00:00 | |
| PETON7-10 | 2026-09-05 00:48:20 | 46.04397 | 15.30108 | 58° | 9km/h | 21845m | -13.0m/s | 0°C | 0% | 0hPa | 0V | 00:00:00 | 00:00:00 | 00:00:00 | |
| 9A1FER-10 | 2026-09-05 00:48:14 | 46.04402 | 15.30104 | 177° | 13km/h | 21924m | -13.4m/s | 0°C | 0% | 0hPa | 0V | 00:00:00 | 00:00:00 | 00:00:00 | |
| 9A1FER-3 | 2026-09-05 00:48:11 | 46.04408 | 15.30105 | 195° | 15km/h | 21962m | -12.2m/s | 0°C | 0% | 0hPa | 0V | 00:00:00 | 00:00:00 | 00:00:00 | |
| PETON7-10 | 2026-09-05 00:48:01 | 46.04432 | 15.30137 | 228° | 20km/h | 22089m | -11.8m/s | 0°C | 0% | 0hPa | 0V | 00:00:00 | 00:00:00 | 00:00:00 | |
| 9A1FER-10 | 2026-09-05 00:47:59 | 46.04439 | 15.30147 | 233° | 20km/h | 22114m | -12.8m/s | 0°C | 0% | 0hPa | 0V | 00:00:00 | 00:00:00 | 00:00:00 | |
| 9A1FER-3 | 2026-09-05 00:47:56 | 46.04445 | 15.30167 | 252° | 20km/h | 22152m | -12.0m/s | 0°C | 0% | 0hPa | 0V | 00:00:00 | 00:00:00 | 00:00:00 | |
| PETON7-10 | 2026-09-05 00:47:46 | 46.04464 | 15.30234 | 242° | 18km/h | 22279m | -11.5m/s | 0°C | 0% | 0hPa | 0V | 00:00:00 | 00:00:00 | 00:00:00 | |
| 9A1FER-10 | 2026-09-05 00:47:44 | 46.04466 | 15.30248 | 255° | 18km/h | 22305m | -10.9m/s | 0°C | 0% | 0hPa | 0V | 00:00:00 | 00:00:00 | 00:00:00 | |
| 9A1FER-3 | 2026-09-05 00:47:41 | 46.04467 | 15.30270 | 276° | 18km/h | 22341m | -12.3m/s | 0°C | 0% | 0hPa | 0V | 00:00:00 | 00:00:00 | 00:00:00 | |
| PETON7-10 | 2026-09-05 00:47:31 | 46.04453 | 15.30326 | 316° | 22km/h | 22467m | -12.1m/s | 0°C | 0% | 0hPa | 0V | 00:00:00 | 00:00:00 | 00:00:00 | |
| 9A1FER-10 | 2026-09-05 00:47:29 | 46.04446 | 15.30335 | 325° | 22km/h | 22493m | -11.9m/s | 0°C | 0% | 0hPa | 0V | 00:00:00 | 00:00:00 | 00:00:00 | |
| 9A1FER-3 | 2026-09-05 00:47:26 | 46.04434 | 15.30346 | 331° | 24km/h | 22532m | -11.9m/s | 0°C | 0% | 0hPa | 0V | 00:00:00 | 00:00:00 | 00:00:00 | |
| PETON7-10 | 2026-09-05 00:47:15 | 46.04373 | 15.30377 | 351° | 24km/h | 22664m | -11.2m/s | 0°C | 0% | 0hPa | 0V | 00:00:00 | 00:00:00 | 00:00:00 | |
| 9A1FER-10 | 2026-09-05 00:47:14 | 46.04367 | 15.30377 | 5° | 24km/h | 22676m | -11.5m/s | 0°C | 0% | 0hPa | 0V | 00:00:00 | 00:00:00 | 00:00:00 | |
| 9A1FER-3 | 2026-09-05 00:47:11 | 46.04351 | 15.30375 | 3° | 24km/h | 22714m | -12.3m/s | 0°C | 0% | 0hPa | 0V | 00:00:00 | 00:00:00 | 00:00:00 | |
| 9A1FER-10 | 2026-09-05 00:46:59 | 46.04282 | 15.30362 | 25° | 22km/h | 22862m | -12.8m/s | 0°C | 0% | 0hPa | 0V | 00:00:00 | 00:00:00 | 00:00:00 | |
| PETON7-10 | 2026-09-05 00:46:58 | 46.04278 | 15.30358 | 44° | 24km/h | 22875m | -11.6m/s | 0°C | 0% | 0hPa | 0V | 00:00:00 | 00:00:00 | 00:00:00 | |
| 9A1FER-3 | 2026-09-05 00:46:56 | 46.04273 | 15.30345 | 80° | 24km/h | 22897m | -9.8m/s | 0°C | 0% | 0hPa | 0V | 00:00:00 | 00:00:00 | 00:00:00 | |
| 9A1FER-10 | 2026-09-05 00:46:44 | 46.04234 | 15.30269 | 87° | 24km/h | 23015m | 4.9m/s | 0°C | 0% | 0hPa | 0V | 00:00:00 | 00:00:00 | 00:00:00 | |
| PETON7-10 | 2026-09-05 00:46:43 | 46.04234 | 15.30259 | 85° | 24km/h | 23009m | 6.7m/s | 0°C | 0% | 0hPa | 0V | 00:00:00 | 00:00:00 | 00:00:00 | |
| 9A1FER-3 | 2026-09-05 00:46:41 | 46.04230 | 15.30237 | 70° | 20km/h | 22999m | 4.9m/s | 0°C | 0% | 0hPa | 0V | 00:00:00 | 00:00:00 | 00:00:00 | |
| 9A1FER-10 | 2026-09-05 00:46:29 | 46.04192 | 15.30164 | 53° | 20km/h | 22930m | 5.4m/s | 0°C | 0% | 0hPa | 0V | 00:00:00 | 00:00:00 | 00:00:00 | |
| PETON7-10 | 2026-09-05 00:46:28 | 46.04189 | 15.30161 | 34° | 20km/h | 22925m | 5.0m/s | 0°C | 0% | 0hPa | 0V | 00:00:00 | 00:00:00 | 00:00:00 | |
| 9A1FER-3 | 2026-09-05 00:46:26 | 46.04182 | 15.30155 | 31° | 20km/h | 22914m | 4.8m/s | 0°C | 0% | 0hPa | 0V | 00:00:00 | 00:00:00 | 00:00:00 | |
| 9A1FER-10 | 2026-09-05 00:46:14 | 46.04130 | 15.30102 | 30° | 22km/h | 22846m | 6.9m/s | 0°C | 0% | 0hPa | 0V | 00:00:00 | 00:00:00 | 00:00:00 | |
| PETON7-10 | 2026-09-05 00:46:13 | 46.04126 | 15.30098 | 40° | 22km/h | 22840m | 4.9m/s | 0°C | 0% | 0hPa | 0V | 00:00:00 | 00:00:00 | 00:00:00 | |
| 9A1FER-3 | 2026-09-05 00:46:11 | 46.04119 | 15.30090 | 38° | 24km/h | 22830m | 6.0m/s | 0°C | 0% | 0hPa | 0V | 00:00:00 | 00:00:00 | 00:00:00 | |
| 9A1FER-10 | 2026-09-05 00:45:59 | 46.04055 | 15.30048 | 26° | 24km/h | 22761m | 5.2m/s | 0°C | 0% | 0hPa | 0V | 00:00:00 | 00:00:00 | 00:00:00 | |
| PETON7-10 | 2026-09-05 00:45:58 | 46.04049 | 15.30044 | 32° | 26km/h | 22755m | 6.6m/s | 0°C | 0% | 0hPa | 0V | 00:00:00 | 00:00:00 | 00:00:00 | |
| 9A1FER-3 | 2026-09-05 00:45:56 | 46.04039 | 15.30038 | 11° | 26km/h | 22744m | 7.3m/s | 0°C | 0% | 0hPa | 0V | 00:00:00 | 00:00:00 | 00:00:00 | |
| 9A1FER-10 | 2026-09-05 00:45:44 | 46.03967 | 15.30047 | 343° | 29km/h | 22675m | 4.8m/s | 0°C | 0% | 0hPa | 0V | 00:00:00 | 00:00:00 | 00:00:00 | |
| PETON7-10 | 2026-09-05 00:45:43 | 46.03959 | 15.30051 | 340° | 29km/h | 22670m | 6.0m/s | 0°C | 0% | 0hPa | 0V | 00:00:00 | 00:00:00 | 00:00:00 | |
| 9A1FER-3 | 2026-09-05 00:45:41 | 46.03945 | 15.30058 | 344° | 27km/h | 22658m | 5.4m/s | 0°C | 0% | 0hPa | 0V | 00:00:00 | 00:00:00 | 00:00:00 | |
| 9A1FER-10 | 2026-09-05 00:45:29 | 46.03869 | 15.30092 | 323° | 22km/h | 22590m | 5.8m/s | 0°C | 0% | 0hPa | 0V | 00:00:00 | 00:00:00 | 00:00:00 | |
| PETON7-10 | 2026-09-05 00:45:28 | 46.03864 | 15.30096 | 337° | 22km/h | 22584m | 6.1m/s | 0°C | 0% | 0hPa | 0V | 00:00:00 | 00:00:00 | 00:00:00 | |
| 9A1FER-3 | 2026-09-05 00:45:26 | 46.03853 | 15.30100 | 349° | 22km/h | 22573m | 6.9m/s | 0°C | 0% | 0hPa | 0V | 00:00:00 | 00:00:00 | 00:00:00 | |
| 9A1FER-10 | 2026-09-05 00:45:14 | 46.03797 | 15.30150 | 336° | 18km/h | 22506m | 6.6m/s | 0°C | 0% | 0hPa | 0V | 00:00:00 | 00:00:00 | 00:00:00 | |
| PETON7-10 | 2026-09-05 00:45:12 | 46.03789 | 15.30157 | 336° | 20km/h | 22495m | 6.3m/s | 0°C | 0% | 0hPa | 0V | 00:00:00 | 00:00:00 | 00:00:00 | |
| 9A1FER-3 | 2026-09-05 00:45:11 | 46.03783 | 15.30160 | 339° | 20km/h | 22488m | 5.9m/s | 0°C | 0% | 0hPa | 0V | 00:00:00 | 00:00:00 | 00:00:00 | |
| 9A1FER-10 | 2026-09-05 00:44:59 | 46.03742 | 15.30214 | 304° | 18km/h | 22421m | 5.9m/s | 0°C | 0% | 0hPa | 0V | 00:00:00 | 00:00:00 | 00:00:00 | |
| PETON7-10 | 2026-09-05 00:44:57 | 46.03741 | 15.30227 | 267° | 18km/h | 22410m | 4.3m/s | 0°C | 0% | 0hPa | 0V | 00:00:00 | 00:00:00 | 00:00:00 | |
| 9A1FER-3 | 2026-09-05 00:44:56 | 46.03741 | 15.30235 | 276° | 18km/h | 22405m | 5.9m/s | 0°C | 0% | 0hPa | 0V | 00:00:00 | 00:00:00 | 00:00:00 | |
| 9A1FER-10 | 2026-09-05 00:44:44 | 46.03725 | 15.30306 | 300° | 20km/h | 22338m | 5.5m/s | 0°C | 0% | 0hPa | 0V | 00:00:00 | 00:00:00 | 00:00:00 | |
| 9A1FER-3 | 2026-09-05 00:44:41 | 46.03719 | 15.30321 | 285° | 24km/h | 22322m | 4.0m/s | 0°C | 0% | 0hPa | 0V | 00:00:00 | 00:00:00 | 00:00:00 | |
| 9A1FER-10 | 2026-09-05 00:44:29 | 46.03722 | 15.30412 | 261° | 24km/h | 22256m | 6.4m/s | 0°C | 0% | 0hPa | 0V | 00:00:00 | 00:00:00 | 00:00:00 | |
| 9A1FER-3 | 2026-09-05 00:44:26 | 46.03731 | 15.30443 | 230° | 22km/h | 22239m | 4.2m/s | 0°C | 0% | 0hPa | 0V | 00:00:00 | 00:00:00 | 00:00:00 | |
| PETON7-10 | 2026-09-05 00:44:25 | 46.03735 | 15.30451 | 233° | 20km/h | 22234m | 5.1m/s | 0°C | 0% | 0hPa | 0V | 00:00:00 | 00:00:00 | 00:00:00 | |
| 9A1FER-10 | 2026-09-05 00:44:14 | 46.03749 | 15.30529 | 252° | 22km/h | 22175m | 4.4m/s | 0°C | 0% | 0hPa | 0V | 00:00:00 | 00:00:00 | 00:00:00 | |
| 9A1FER-3 | 2026-09-05 00:44:11 | 46.03750 | 15.30551 | 274° | 20km/h | 22158m | 5.7m/s | 0°C | 0% | 0hPa | 0V | 00:00:00 | 00:00:00 | 00:00:00 | |
| PETON7-10 | 2026-09-05 00:44:10 | 46.03751 | 15.30555 | 248° | 22km/h | 22153m | 5.8m/s | 0°C | 0% | 0hPa | 0V | 00:00:00 | 00:00:00 | 00:00:00 | |
| 9A1FER-10 | 2026-09-05 00:43:59 | 46.03775 | 15.30634 | 232° | 16km/h | 22094m | 4.3m/s | 0°C | 0% | 0hPa | 0V | 00:00:00 | 00:00:00 | 00:00:00 | |
| 9A1FER-3 | 2026-09-05 00:43:56 | 46.03780 | 15.30649 | 242° | 18km/h | 22078m | 4.1m/s | 0°C | 0% | 0hPa | 0V | 00:00:00 | 00:00:00 | 00:00:00 | |
| PETON7-10 | 2026-09-05 00:43:54 | 46.03788 | 15.30661 | 219° | 16km/h | 22068m | 4.8m/s | 0°C | 0% | 0hPa | 0V | 00:00:00 | 00:00:00 | 00:00:00 | |
| 9A1FER-10 | 2026-09-05 00:43:43 | 46.03813 | 15.30715 | 213° | 11km/h | 22011m | 4.1m/s | 0°C | 0% | 0hPa | 0V | 00:00:00 | 00:00:00 | 00:00:00 | |
| 9A1FER-3 | 2026-09-05 00:43:41 | 46.03819 | 15.30722 | 240° | 9km/h | 22001m | 5.8m/s | 0°C | 0% | 0hPa | 0V | 00:00:00 | 00:00:00 | 00:00:00 | |
| PETON7-10 | 2026-09-05 00:43:38 | 46.03819 | 15.30734 | 270° | 7km/h | 21984m | 4.3m/s | 0°C | 0% | 0hPa | 0V | 00:00:00 | 00:00:00 | 00:00:00 | |
| 9A1FER-10 | 2026-09-05 00:43:28 | 46.03839 | 15.30743 | 189° | 5km/h | 21930m | 4.6m/s | 0°C | 0% | 0hPa | 0V | 00:00:00 | 00:00:00 | 00:00:00 | |
| 9A1FER-3 | 2026-09-05 00:43:26 | 46.03840 | 15.30742 | 95° | 5km/h | 21919m | 5.0m/s | 0°C | 0% | 0hPa | 0V | 00:00:00 | 00:00:00 | 00:00:00 | |
| PETON7-10 | 2026-09-05 00:43:23 | 46.03844 | 15.30743 | 207° | 5km/h | 21903m | 4.1m/s | 0°C | 0% | 0hPa | 0V | 00:00:00 | 00:00:00 | 00:00:00 | |
| 9A1FER-10 | 2026-09-05 00:43:13 | 46.03849 | 15.30742 | 244° | 5km/h | 21854m | 5.8m/s | 0°C | 0% | 0hPa | 0V | 00:00:00 | 00:00:00 | 00:00:00 | |
| 9A1FER-3 | 2026-09-05 00:43:11 | 46.03850 | 15.30746 | 227° | 5km/h | 21843m | 4.5m/s | 0°C | 0% | 0hPa | 0V | 00:00:00 | 00:00:00 | 00:00:00 | |
| PETON7-10 | 2026-09-05 00:43:08 | 46.03851 | 15.30745 | 1° | 5km/h | 21827m | 5.3m/s | 0°C | 0% | 0hPa | 0V | 00:00:00 | 00:00:00 | 00:00:00 | |
| 9A1FER-10 | 2026-09-05 00:42:58 | 46.03855 | 15.30757 | 189° | 7km/h | 21774m | 6.3m/s | 0°C | 0% | 0hPa | 0V | 00:00:00 | 00:00:00 | 00:00:00 | |
| 9A1FER-3 | 2026-09-05 00:42:56 | 46.03855 | 15.30758 | 342° | 7km/h | 21763m | 5.9m/s | 0°C | 0% | 0hPa | 0V | 00:00:00 | 00:00:00 | 00:00:00 | |
| PETON7-10 | 2026-09-05 00:42:53 | 46.03852 | 15.30760 | 252° | 9km/h | 21747m | 6.2m/s | 0°C | 0% | 0hPa | 0V | 00:00:00 | 00:00:00 | 00:00:00 | |
| 9A1FER-10 | 2026-09-05 00:42:43 | 46.03868 | 15.30778 | 223° | 7km/h | 21695m | 5.8m/s | 0°C | 0% | 0hPa | 0V | 00:00:00 | 00:00:00 | 00:00:00 | |
| 9A1FER-3 | 2026-09-05 00:42:41 | 46.03869 | 15.30780 | 278° | 7km/h | 21684m | 5.6m/s | 0°C | 0% | 0hPa | 0V | 00:00:00 | 00:00:00 | 00:00:00 | |
| PETON7-10 | 2026-09-05 00:42:38 | 46.03874 | 15.30784 | 199° | 7km/h | 21668m | 4.5m/s | 0°C | 0% | 0hPa | 0V | 00:00:00 | 00:00:00 | 00:00:00 | |
| 9A1FER-10 | 2026-09-05 00:42:28 | 46.03886 | 15.30789 | 219° | 11km/h | 21616m | 6.2m/s | 0°C | 0% | 0hPa | 0V | 00:00:00 | 00:00:00 | 00:00:00 | |
| 9A1FER-3 | 2026-09-05 00:42:26 | 46.03890 | 15.30789 | 149° | 13km/h | 21605m | 6.2m/s | 0°C | 0% | 0hPa | 0V | 00:00:00 | 00:00:00 | 00:00:00 | |
| PETON7-10 | 2026-09-05 00:42:23 | 46.03893 | 15.30779 | 130° | 11km/h | 21589m | 5.7m/s | 0°C | 0% | 0hPa | 0V | 00:00:00 | 00:00:00 | 00:00:00 | |
| 9A1FER-10 | 2026-09-05 00:42:13 | 46.03911 | 15.30781 | 107° | 11km/h | 21538m | 6.0m/s | 0°C | 0% | 0hPa | 0V | 00:00:00 | 00:00:00 | 00:00:00 | |
| 9A1FER-3 | 2026-09-05 00:42:11 | 46.03914 | 15.30769 | 112° | 9km/h | 21529m | 5.3m/s | 0°C | 0% | 0hPa | 0V | 00:00:00 | 00:00:00 | 00:00:00 | |
| PETON7-10 | 2026-09-05 00:42:08 | 46.03916 | 15.30772 | 242° | 9km/h | 21512m | 6.1m/s | 0°C | 0% | 0hPa | 0V | 00:00:00 | 00:00:00 | 00:00:00 | |
| 9A1FER-10 | 2026-09-05 00:41:58 | 46.03922 | 15.30762 | 249° | 13km/h | 21460m | 5.5m/s | 0°C | 0% | 0hPa | 0V | 00:00:00 | 00:00:00 | 00:00:00 | |
| 9A1FER-3 | 2026-09-05 00:41:56 | 46.03925 | 15.30768 | 252° | 13km/h | 21450m | 5.3m/s | 0°C | 0% | 0hPa | 0V | 00:00:00 | 00:00:00 | 00:00:00 | |
| PETON7-10 | 2026-09-05 00:41:53 | 46.03922 | 15.30773 | 52° | 15km/h | 21435m | 7.0m/s | 0°C | 0% | 0hPa | 0V | 00:00:00 | 00:00:00 | 00:00:00 | |
| 9A1FER-10 | 2026-09-05 00:41:43 | 46.03901 | 15.30768 | 346° | 13km/h | 21381m | 5.7m/s | 0°C | 0% | 0hPa | 0V | 00:00:00 | 00:00:00 | 00:00:00 | |
| 9A1FER-3 | 2026-09-05 00:41:41 | 46.03895 | 15.30763 | 44° | 11km/h | 21371m | 5.7m/s | 0°C | 0% | 0hPa | 0V | 00:00:00 | 00:00:00 | 00:00:00 | |
| PETON7-10 | 2026-09-05 00:41:38 | 46.03884 | 15.30754 | 20° | 9km/h | 21356m | 6.5m/s | 0°C | 0% | 0hPa | 0V | 00:00:00 | 00:00:00 | 00:00:00 | |
| 9A1FER-10 | 2026-09-05 00:41:28 | 46.03874 | 15.30763 | 354° | 4km/h | 21303m | 5.2m/s | 0°C | 0% | 0hPa | 0V | 00:00:00 | 00:00:00 | 00:00:00 | |
| 9A1FER-3 | 2026-09-05 00:41:26 | 46.03873 | 15.30765 | 238° | 4km/h | 21292m | 4.3m/s | 0°C | 0% | 0hPa | 0V | 00:00:00 | 00:00:00 | 00:00:00 | |
| PETON7-10 | 2026-09-05 00:41:23 | 46.03873 | 15.30771 | 323° | 4km/h | 21277m | 4.1m/s | 0°C | 0% | 0hPa | 0V | 00:00:00 | 00:00:00 | 00:00:00 | |
| 9A1FER-10 | 2026-09-05 00:41:13 | 46.03873 | 15.30772 | 212° | 7km/h | 21222m | 6.1m/s | 0°C | 0% | 0hPa | 0V | 00:00:00 | 00:00:00 | 00:00:00 | |
| 9A1FER-3 | 2026-09-05 00:41:11 | 46.03877 | 15.30771 | 163° | 9km/h | 21210m | 5.5m/s | 0°C | 0% | 0hPa | 0V | 00:00:00 | 00:00:00 | 00:00:00 | |
| PETON7-10 | 2026-09-05 00:41:08 | 46.03880 | 15.30768 | 145° | 11km/h | 21195m | 6.3m/s | 0°C | 0% | 0hPa | 0V | 00:00:00 | 00:00:00 | 00:00:00 | |
| 9A1FER-10 | 2026-09-05 00:40:58 | 46.03900 | 15.30762 | 155° | 16km/h | 21140m | 6.8m/s | 0°C | 0% | 0hPa | 0V | 00:00:00 | 00:00:00 | 00:00:00 | |
| 9A1FER-3 | 2026-09-05 00:40:56 | 46.03908 | 15.30758 | 163° | 16km/h | 21128m | 6.5m/s | 0°C | 0% | 0hPa | 0V | 00:00:00 | 00:00:00 | 00:00:00 | |
| PETON7-10 | 2026-09-05 00:40:53 | 46.03920 | 15.30753 | 160° | 16km/h | 21111m | 4.5m/s | 0°C | 0% | 0hPa | 0V | 00:00:00 | 00:00:00 | 00:00:00 | |
| 9A1FER-10 | 2026-09-05 00:40:42 | 46.03955 | 15.30714 | 151° | 16km/h | 21053m | 6.1m/s | 0°C | 0% | 0hPa | 0V | 00:00:00 | 00:00:00 | 00:00:00 | |
| 9A1FER-3 | 2026-09-05 00:40:41 | 46.03956 | 15.30712 | 119° | 18km/h | 21047m | 5.3m/s | 0°C | 0% | 0hPa | 0V | 00:00:00 | 00:00:00 | 00:00:00 | |
| PETON7-10 | 2026-09-05 00:40:37 | 46.03965 | 15.30681 | 103° | 20km/h | 21026m | 4.9m/s | 0°C | 0% | 0hPa | 0V | 00:00:00 | 00:00:00 | 00:00:00 | |
| 9A1FER-10 | 2026-09-05 00:40:27 | 46.03992 | 15.30642 | 127° | 22km/h | 20975m | 6.2m/s | 0°C | 0% | 0hPa | 0V | 00:00:00 | 00:00:00 | 00:00:00 | |
| 9A1FER-3 | 2026-09-05 00:40:26 | 46.03996 | 15.30634 | 120° | 20km/h | 20970m | 4.9m/s | 0°C | 0% | 0hPa | 0V | 00:00:00 | 00:00:00 | 00:00:00 | |
| PETON7-10 | 2026-09-05 00:40:22 | 46.04010 | 15.30608 | 125° | 18km/h | 20950m | 5.6m/s | 0°C | 0% | 0hPa | 0V | 00:00:00 | 00:00:00 | 00:00:00 | |
| 9A1FER-10 | 2026-09-05 00:40:12 | 46.04029 | 15.30542 | 118° | 18km/h | 20899m | 6.4m/s | 0°C | 0% | 0hPa | 0V | 00:00:00 | 00:00:00 | 00:00:00 | |
| 9A1FER-3 | 2026-09-05 00:40:11 | 46.04031 | 15.30536 | 98° | 18km/h | 20893m | 4.7m/s | 0°C | 0% | 0hPa | 0V | 00:00:00 | 00:00:00 | 00:00:00 | |
| PETON7-10 | 2026-09-05 00:40:07 | 46.04029 | 15.30514 | 67° | 20km/h | 20872m | 4.4m/s | 0°C | 0% | 0hPa | 0V | 00:00:00 | 00:00:00 | 00:00:00 | |
| 9A1FER-10 | 2026-09-05 00:39:57 | 46.04032 | 15.30444 | 70° | 20km/h | 20821m | 6.5m/s | 0°C | 0% | 0hPa | 0V | 00:00:00 | 00:00:00 | 00:00:00 | |
| 9A1FER-3 | 2026-09-05 00:39:56 | 46.04029 | 15.30437 | 55° | 18km/h | 20816m | 4.1m/s | 0°C | 0% | 0hPa | 0V | 00:00:00 | 00:00:00 | 00:00:00 | |
| PETON7-10 | 2026-09-05 00:39:52 | 46.04021 | 15.30413 | 74° | 18km/h | 20797m | 6.2m/s | 0°C | 0% | 0hPa | 0V | 00:00:00 | 00:00:00 | 00:00:00 | |
| 9A1FER-10 | 2026-09-05 00:39:42 | 46.04012 | 15.30349 | 62° | 13km/h | 20746m | 5.8m/s | 0°C | 0% | 0hPa | 0V | 00:00:00 | 00:00:00 | 00:00:00 | |
| 9A1FER-3 | 2026-09-05 00:39:41 | 46.04012 | 15.30346 | 89° | 13km/h | 20740m | 4.6m/s | 0°C | 0% | 0hPa | 0V | 00:00:00 | 00:00:00 | 00:00:00 | |
| PETON7-10 | 2026-09-05 00:39:37 | 46.04018 | 15.30329 | 137° | 13km/h | 20720m | 5.8m/s | 0°C | 0% | 0hPa | 0V | 00:00:00 | 00:00:00 | 00:00:00 | |
| 9A1FER-3 | 2026-09-05 00:39:26 | 46.04018 | 15.30288 | 113° | 11km/h | 20665m | 5.1m/s | 0°C | 0% | 0hPa | 0V | 00:00:00 | 00:00:00 | 00:00:00 | |
| 9A1FER-10 | 2026-09-05 00:39:25 | 46.04018 | 15.30284 | 82° | 11km/h | 20661m | 3.6m/s | 0°C | 0% | 0hPa | 0V | 00:00:00 | 00:00:00 | 00:00:00 | |
| PETON7-10 | 2026-09-05 00:39:22 | 46.04013 | 15.30274 | 25° | 9km/h | 20645m | 6.4m/s | 0°C | 0% | 0hPa | 0V | 00:00:00 | 00:00:00 | 00:00:00 | |
| 9A1FER-3 | 2026-09-05 00:39:11 | 46.04005 | 15.30247 | 360° | 7km/h | 20589m | 4.6m/s | 0°C | 0% | 0hPa | 0V | 00:00:00 | 00:00:00 | 00:00:00 | |
| 9A1FER-10 | 2026-09-05 00:39:10 | 46.04003 | 15.30247 | 5° | 7km/h | 20584m | 5.5m/s | 0°C | 0% | 0hPa | 0V | 00:00:00 | 00:00:00 | 00:00:00 | |
| PETON7-10 | 2026-09-05 00:39:07 | 46.03999 | 15.30241 | 55° | 7km/h | 20569m | 5.4m/s | 0°C | 0% | 0hPa | 0V | 00:00:00 | 00:00:00 | 00:00:00 | |
| 9A1FER-3 | 2026-09-05 00:38:56 | 46.03980 | 15.30237 | 20° | 5km/h | 20515m | 4.9m/s | 0°C | 0% | 0hPa | 0V | 00:00:00 | 00:00:00 | 00:00:00 | |
| 9A1FER-10 | 2026-09-05 00:38:55 | 46.03979 | 15.30237 | 9° | 5km/h | 20509m | 5.8m/s | 0°C | 0% | 0hPa | 0V | 00:00:00 | 00:00:00 | 00:00:00 | |
| PETON7-10 | 2026-09-05 00:38:52 | 46.03979 | 15.30232 | 85° | 9km/h | 20494m | 4.8m/s | 0°C | 0% | 0hPa | 0V | 00:00:00 | 00:00:00 | 00:00:00 | |
| 9A1FER-3 | 2026-09-05 00:38:41 | 46.03978 | 15.30227 | 121° | 13km/h | 20439m | 5.3m/s | 0°C | 0% | 0hPa | 0V | 00:00:00 | 00:00:00 | 00:00:00 | |
| 9A1FER-10 | 2026-09-05 00:38:40 | 46.03980 | 15.30222 | 112° | 13km/h | 20435m | 4.1m/s | 0°C | 0% | 0hPa | 0V | 00:00:00 | 00:00:00 | 00:00:00 | |
| PETON7-10 | 2026-09-05 00:38:37 | 46.03984 | 15.30213 | 140° | 15km/h | 20420m | 3.5m/s | 0°C | 0% | 0hPa | 0V | 00:00:00 | 00:00:00 | 00:00:00 | |
| 9A1FER-3 | 2026-09-05 00:38:26 | 46.03994 | 15.30166 | 106° | 24km/h | 20364m | 5.7m/s | 0°C | 0% | 0hPa | 0V | 00:00:00 | 00:00:00 | 00:00:00 | |
| 9A1FER-10 | 2026-09-05 00:38:25 | 46.03995 | 15.30161 | 124° | 27km/h | 20359m | 4.1m/s | 0°C | 0% | 0hPa | 0V | 00:00:00 | 00:00:00 | 00:00:00 | |
| PETON7-10 | 2026-09-05 00:38:22 | 46.04003 | 15.30143 | 112° | 27km/h | 20344m | 4.9m/s | 0°C | 0% | 0hPa | 0V | 00:00:00 | 00:00:00 | 00:00:00 | |
| 9A1FER-3 | 2026-09-05 00:38:11 | 46.04032 | 15.30045 | 122° | 31km/h | 20288m | 5.6m/s | 0°C | 0% | 0hPa | 0V | 00:00:00 | 00:00:00 | 00:00:00 | |
| PETON7-10 | 2026-09-05 00:38:07 | 46.04046 | 15.30010 | 122° | 33km/h | 20269m | 4.9m/s | 0°C | 0% | 0hPa | 0V | 00:00:00 | 00:00:00 | 00:00:00 | |
| 9A1FER-3 | 2026-09-05 00:37:56 | 46.04094 | 15.29903 | 131° | 31km/h | 20214m | 5.8m/s | 0°C | 0% | 0hPa | 0V | 00:00:00 | 00:00:00 | 00:00:00 | |
| PETON7-10 | 2026-09-05 00:37:52 | 46.04114 | 15.29862 | 116° | 29km/h | 20194m | 4.8m/s | 0°C | 0% | 0hPa | 0V | 00:00:00 | 00:00:00 | 00:00:00 | |
| 9A1FER-3 | 2026-09-05 00:37:41 | 46.04145 | 15.29755 | 122° | 29km/h | 20137m | 4.9m/s | 0°C | 0% | 0hPa | 0V | 00:00:00 | 00:00:00 | 00:00:00 | |
| PETON7-10 | 2026-09-05 00:37:37 | 46.04158 | 15.29717 | 122° | 27km/h | 20116m | 5.9m/s | 0°C | 0% | 0hPa | 0V | 00:00:00 | 00:00:00 | 00:00:00 | |
| PETON7-10 | 2026-09-05 00:37:22 | 46.04213 | 15.29592 | 143° | 27km/h | 20036m | 5.9m/s | 0°C | 0% | 0hPa | 0V | 00:00:00 | 00:00:00 | 00:00:00 | |
| 9A1FER-3 | 2026-09-05 00:37:11 | 46.04265 | 15.29525 | 136° | 33km/h | 19981m | 5.1m/s | 0°C | 0% | 0hPa | 0V | 00:00:00 | 00:00:00 | 00:00:00 | |
| PETON7-10 | 2026-09-05 00:37:07 | 46.04283 | 15.29484 | 121° | 33km/h | 19960m | 4.5m/s | 0°C | 0% | 0hPa | 0V | 00:00:00 | 00:00:00 | 00:00:00 | |
| 9A1FER-3 | 2026-09-05 00:36:56 | 46.04324 | 15.29376 | 120° | 31km/h | 19905m | 4.1m/s | 0°C | 0% | 0hPa | 0V | 00:00:00 | 00:00:00 | 00:00:00 | |
| PETON7-10 | 2026-09-05 00:36:50 | 46.04337 | 15.29304 | 105° | 29km/h | 19874m | 6.0m/s | 0°C | 0% | 0hPa | 0V | 00:00:00 | 00:00:00 | 00:00:00 | |
| 9A1FER-3 | 2026-09-05 00:36:41 | 46.04368 | 15.29224 | 113° | 27km/h | 19828m | 4.5m/s | 0°C | 0% | 0hPa | 0V | 00:00:00 | 00:00:00 | 00:00:00 | |
| PETON7-10 | 2026-09-05 00:36:34 | 46.04397 | 15.29166 | 139° | 27km/h | 19790m | 4.5m/s | 0°C | 0% | 0hPa | 0V | 00:00:00 | 00:00:00 | 00:00:00 | |
| 9A1FER-3 | 2026-09-05 00:36:25 | 46.04437 | 15.29099 | 151° | 26km/h | 19742m | 6.3m/s | 0°C | 0% | 0hPa | 0V | 00:00:00 | 00:00:00 | 00:00:00 | |
| PETON7-10 | 2026-09-05 00:36:19 | 46.04458 | 15.29057 | 110° | 27km/h | 19710m | 4.2m/s | 0°C | 0% | 0hPa | 0V | 00:00:00 | 00:00:00 | 00:00:00 | |
| 9A1FER-3 | 2026-09-05 00:36:10 | 46.04498 | 15.28999 | 110° | 33km/h | 19662m | 5.0m/s | 0°C | 0% | 0hPa | 0V | 00:00:00 | 00:00:00 | 00:00:00 | |
| PETON7-10 | 2026-09-05 00:36:04 | 46.04527 | 15.28947 | 137° | 35km/h | 19632m | 4.7m/s | 0°C | 0% | 0hPa | 0V | 00:00:00 | 00:00:00 | 00:00:00 | |
| 9A1FER-3 | 2026-09-05 00:35:55 | 46.04572 | 15.28860 | 142° | 40km/h | 19580m | 6.4m/s | 0°C | 0% | 0hPa | 0V | 00:00:00 | 00:00:00 | 00:00:00 | |
| PETON7-10 | 2026-09-05 00:35:49 | 46.04606 | 15.28790 | 120° | 38km/h | 19547m | 4.4m/s | 0°C | 0% | 0hPa | 0V | 00:00:00 | 00:00:00 | 00:00:00 | |
| 9A1FER-3 | 2026-09-05 00:35:40 | 46.04655 | 15.28678 | 112° | 33km/h | 19499m | 5.8m/s | 0°C | 0% | 0hPa | 0V | 00:00:00 | 00:00:00 | 00:00:00 | |
| PETON7-10 | 2026-09-05 00:35:34 | 46.04675 | 15.28611 | 112° | 33km/h | 19468m | 3.3m/s | 0°C | 0% | 0hPa | 0V | 00:00:00 | 00:00:00 | 00:00:00 | |
| 9A1FER-3 | 2026-09-05 00:35:25 | 46.04698 | 15.28508 | 94° | 33km/h | 19420m | 4.7m/s | 0°C | 0% | 0hPa | 0V | 00:00:00 | 00:00:00 | 00:00:00 | |
| 9A1FER-10 | 2026-09-05 00:35:22 | 46.04703 | 15.28473 | 107° | 37km/h | 19404m | 5.1m/s | 0°C | 0% | 0hPa | 0V | 00:00:00 | 00:00:00 | 00:00:00 | |
| PETON7-10 | 2026-09-05 00:35:19 | 46.04708 | 15.28437 | 99° | 35km/h | 19388m | 4.4m/s | 0°C | 0% | 0hPa | 0V | 00:00:00 | 00:00:00 | 00:00:00 | |
| 9A1FER-3 | 2026-09-05 00:35:10 | 46.04723 | 15.28329 | 97° | 35km/h | 19342m | 6.5m/s | 0°C | 0% | 0hPa | 0V | 00:00:00 | 00:00:00 | 00:00:00 | |
| 9A1FER-10 | 2026-09-05 00:35:07 | 46.04723 | 15.28288 | 96° | 29km/h | 19326m | 6.3m/s | 0°C | 0% | 0hPa | 0V | 00:00:00 | 00:00:00 | 00:00:00 | |
| PETON7-10 | 2026-09-05 00:35:01 | 46.04732 | 15.28218 | 102° | 35km/h | 19296m | 3.9m/s | 0°C | 0% | 0hPa | 0V | 00:00:00 | 00:00:00 | 00:00:00 | |
| 9A1FER-3 | 2026-09-05 00:34:55 | 46.04736 | 15.28145 | 92° | 37km/h | 19265m | 5.9m/s | 0°C | 0% | 0hPa | 0V | 00:00:00 | 00:00:00 | 00:00:00 | |
| PETON7-10 | 2026-09-05 00:34:45 | 46.04730 | 15.28016 | 77° | 33km/h | 19213m | 4.5m/s | 0°C | 0% | 0hPa | 0V | 00:00:00 | 00:00:00 | 00:00:00 | |
| 9A1FER-3 | 2026-09-05 00:34:40 | 46.04725 | 15.27953 | 83° | 33km/h | 19188m | 4.2m/s | 0°C | 0% | 0hPa | 0V | 00:00:00 | 00:00:00 | 00:00:00 | |
| PETON7-10 | 2026-09-05 00:34:30 | 46.04712 | 15.27838 | 75° | 31km/h | 19139m | 4.4m/s | 0°C | 0% | 0hPa | 0V | 00:00:00 | 00:00:00 | 00:00:00 | |
| 9A1FER-3 | 2026-09-05 00:34:25 | 46.04703 | 15.27782 | 75° | 29km/h | 19114m | 5.9m/s | 0°C | 0% | 0hPa | 0V | 00:00:00 | 00:00:00 | 00:00:00 | |
| PETON7-10 | 2026-09-05 00:34:13 | 46.04675 | 15.27657 | 83° | 22km/h | 19054m | 3.8m/s | 0°C | 0% | 0hPa | 0V | 00:00:00 | 00:00:00 | 00:00:00 | |
| 9A1FER-3 | 2026-09-05 00:34:11 | 46.04669 | 15.27633 | 60° | 24km/h | 19039m | 5.2m/s | 0°C | 0% | 0hPa | 0V | 00:00:00 | 00:00:00 | 00:00:00 | |
| 9A1FER-10 | 2026-09-05 00:34:04 | 46.04654 | 15.27583 | 79° | 22km/h | 19008m | 5.1m/s | 0°C | 0% | 0hPa | 0V | 00:00:00 | 00:00:00 | 00:00:00 | |
| PETON7-10 | 2026-09-05 00:33:58 | 46.04640 | 15.27543 | 42° | 24km/h | 18978m | 5.9m/s | 0°C | 0% | 0hPa | 0V | 00:00:00 | 00:00:00 | 00:00:00 | |
| 9A1FER-3 | 2026-09-05 00:33:55 | 46.04629 | 15.27519 | 73° | 26km/h | 18963m | 5.2m/s | 0°C | 0% | 0hPa | 0V | 00:00:00 | 00:00:00 | 00:00:00 | |
| 9A1FER-10 | 2026-09-05 00:33:49 | 46.04624 | 15.27475 | 71° | 33km/h | 18934m | 4.6m/s | 0°C | 0% | 0hPa | 0V | 00:00:00 | 00:00:00 | 00:00:00 | |
| PETON7-10 | 2026-09-05 00:33:43 | 46.04608 | 15.27423 | 84° | 29km/h | 18903m | 6.8m/s | 0°C | 0% | 0hPa | 0V | 00:00:00 | 00:00:00 | 00:00:00 | |
| 9A1FER-3 | 2026-09-05 00:33:40 | 46.04604 | 15.27392 | 81° | 29km/h | 18887m | 4.7m/s | 0°C | 0% | 0hPa | 0V | 00:00:00 | 00:00:00 | 00:00:00 | |
| PETON7-10 | 2026-09-05 00:33:27 | 46.04594 | 15.27257 | 102° | 37km/h | 18822m | 6.3m/s | 0°C | 0% | 0hPa | 0V | 00:00:00 | 00:00:00 | 00:00:00 | |
| 9A1FER-3 | 2026-09-05 00:33:25 | 46.04596 | 15.27229 | 93° | 38km/h | 18812m | 6.0m/s | 0°C | 0% | 0hPa | 0V | 00:00:00 | 00:00:00 | 00:00:00 | |
| PETON7-10 | 2026-09-05 00:33:12 | 46.04584 | 15.27052 | 89° | 38km/h | 18748m | 5.0m/s | 0°C | 0% | 0hPa | 0V | 00:00:00 | 00:00:00 | 00:00:00 | |
| 9A1FER-3 | 2026-09-05 00:33:10 | 46.04583 | 15.27024 | 83° | 38km/h | 18738m | 5.2m/s | 0°C | 0% | 0hPa | 0V | 00:00:00 | 00:00:00 | 00:00:00 | |
| 9A1FER-10 | 2026-09-05 00:32:57 | 46.04554 | 15.26849 | 71° | 40km/h | 18672m | 4.2m/s | 0°C | 0% | 0hPa | 0V | 00:00:00 | 00:00:00 | 00:00:00 | |
| PETON7-10 | 2026-09-05 00:32:56 | 46.04551 | 15.26837 | 66° | 40km/h | 18667m | 6.3m/s | 0°C | 0% | 0hPa | 0V | 00:00:00 | 00:00:00 | 00:00:00 | |
| 9A1FER-3 | 2026-09-05 00:32:55 | 46.04546 | 15.26823 | 63° | 38km/h | 18661m | 4.8m/s | 0°C | 0% | 0hPa | 0V | 00:00:00 | 00:00:00 | 00:00:00 | |
| PETON7-10 | 2026-09-05 00:32:41 | 46.04497 | 15.26642 | 78° | 31km/h | 18589m | 4.6m/s | 0°C | 0% | 0hPa | 0V | 00:00:00 | 00:00:00 | 00:00:00 | |
| 9A1FER-3 | 2026-09-05 00:32:40 | 46.04496 | 15.26632 | 76° | 33km/h | 18585m | 5.3m/s | 0°C | 0% | 0hPa | 0V | 00:00:00 | 00:00:00 | 00:00:00 | |
| PETON7-10 | 2026-09-05 00:32:26 | 46.04440 | 15.26488 | 54° | 31km/h | 18513m | 4.6m/s | 0°C | 0% | 0hPa | 0V | 00:00:00 | 00:00:00 | 00:00:00 | |
| 9A1FER-3 | 2026-09-05 00:32:25 | 46.04436 | 15.26478 | 57° | 31km/h | 18507m | 6.0m/s | 0°C | 0% | 0hPa | 0V | 00:00:00 | 00:00:00 | 00:00:00 | |
| 9A1FER-10 | 2026-09-05 00:32:11 | 46.04379 | 15.26349 | 42° | 26km/h | 18436m | 6.1m/s | 0°C | 0% | 0hPa | 0V | 00:00:00 | 00:00:00 | 00:00:00 | |
| 9A1FER-3 | 2026-09-05 00:32:10 | 46.04374 | 15.26343 | 38° | 24km/h | 18431m | 4.9m/s | 0°C | 0% | 0hPa | 0V | 00:00:00 | 00:00:00 | 00:00:00 | |
| PETON7-10 | 2026-09-05 00:31:56 | 46.04323 | 15.26251 | 50° | 24km/h | 18356m | 4.7m/s | 0°C | 0% | 0hPa | 0V | 00:00:00 | 00:00:00 | 00:00:00 | |
| 9A1FER-3 | 2026-09-05 00:31:55 | 46.04321 | 15.26242 | 56° | 24km/h | 18351m | 5.4m/s | 0°C | 0% | 0hPa | 0V | 00:00:00 | 00:00:00 | 00:00:00 | |
| PETON7-10 | 2026-09-05 00:31:41 | 46.04268 | 15.26147 | 45° | 24km/h | 18278m | 4.0m/s | 0°C | 0% | 0hPa | 0V | 00:00:00 | 00:00:00 | 00:00:00 | |
| 9A1FER-3 | 2026-09-05 00:31:40 | 46.04262 | 15.26139 | 48° | 22km/h | 18274m | 5.0m/s | 0°C | 0% | 0hPa | 0V | 00:00:00 | 00:00:00 | 00:00:00 | |
| 9A1FER-10 | 2026-09-05 00:31:37 | 46.04255 | 15.26124 | 64° | 22km/h | 18257m | 5.2m/s | 0°C | 0% | 0hPa | 0V | 00:00:00 | 00:00:00 | 00:00:00 | |
| PETON7-10 | 2026-09-05 00:31:26 | 46.04225 | 15.26042 | 87° | 22km/h | 18192m | 5.0m/s | 0°C | 0% | 0hPa | 0V | 00:00:00 | 00:00:00 | 00:00:00 | |
| 9A1FER-3 | 2026-09-05 00:31:25 | 46.04224 | 15.26034 | 77° | 20km/h | 18186m | 6.5m/s | 0°C | 0% | 0hPa | 0V | 00:00:00 | 00:00:00 | 00:00:00 | |
| 9A1FER-10 | 2026-09-05 00:31:22 | 46.04221 | 15.26020 | 97° | 20km/h | 18170m | 4.9m/s | 0°C | 0% | 0hPa | 0V | 00:00:00 | 00:00:00 | 00:00:00 | |
| PETON7-10 | 2026-09-05 00:31:11 | 46.04227 | 15.25935 | 80° | 20km/h | 18114m | 5.8m/s | 0°C | 0% | 0hPa | 0V | 00:00:00 | 00:00:00 | 00:00:00 | |
| 9A1FER-3 | 2026-09-05 00:31:10 | 46.04226 | 15.25929 | 84° | 18km/h | 18108m | 4.4m/s | 0°C | 0% | 0hPa | 0V | 00:00:00 | 00:00:00 | 00:00:00 | |
| 9A1FER-10 | 2026-09-05 00:31:07 | 46.04230 | 15.25911 | 121° | 18km/h | 18094m | 2.8m/s | 0°C | 0% | 0hPa | 0V | 00:00:00 | 00:00:00 | 00:00:00 | |
| PETON7-10 | 2026-09-05 00:30:56 | 46.04227 | 15.25838 | 113° | 24km/h | 18041m | 4.6m/s | 0°C | 0% | 0hPa | 0V | 00:00:00 | 00:00:00 | 00:00:00 | |
| 9A1FER-3 | 2026-09-05 00:30:55 | 46.04229 | 15.25832 | 104° | 24km/h | 18037m | 5.2m/s | 0°C | 0% | 0hPa | 0V | 00:00:00 | 00:00:00 | 00:00:00 | |
| 9A1FER-10 | 2026-09-05 00:30:52 | 46.04228 | 15.25814 | 78° | 24km/h | 18022m | 3.6m/s | 0°C | 0% | 0hPa | 0V | 00:00:00 | 00:00:00 | 00:00:00 | |
| PETON7-10 | 2026-09-05 00:30:41 | 46.04217 | 15.25713 | 64° | 20km/h | 17969m | 3.4m/s | 0°C | 0% | 0hPa | 0V | 00:00:00 | 00:00:00 | 00:00:00 | |
| 9A1FER-3 | 2026-09-05 00:30:40 | 46.04216 | 15.25708 | 74° | 24km/h | 17965m | 5.5m/s | 0°C | 0% | 0hPa | 0V | 00:00:00 | 00:00:00 | 00:00:00 | |
| 9A1FER-10 | 2026-09-05 00:30:37 | 46.04216 | 15.25682 | 91° | 26km/h | 17951m | 6.1m/s | 0°C | 0% | 0hPa | 0V | 00:00:00 | 00:00:00 | 00:00:00 | |
| PETON7-10 | 2026-09-05 00:30:26 | 46.04233 | 15.25595 | 103° | 27km/h | 17899m | 5.2m/s | 0°C | 0% | 0hPa | 0V | 00:00:00 | 00:00:00 | 00:00:00 | |
| 9A1FER-3 | 2026-09-05 00:30:25 | 46.04235 | 15.25584 | 108° | 27km/h | 17894m | 4.2m/s | 0°C | 0% | 0hPa | 0V | 00:00:00 | 00:00:00 | 00:00:00 | |
| PETON7-10 | 2026-09-05 00:30:11 | 46.04266 | 15.25455 | 107° | 29km/h | 17831m | 4.4m/s | 0°C | 0% | 0hPa | 0V | 00:00:00 | 00:00:00 | 00:00:00 | |
| 9A1FER-3 | 2026-09-05 00:30:10 | 46.04268 | 15.25445 | 105° | 31km/h | 17827m | 4.7m/s | 0°C | 0% | 0hPa | 0V | 00:00:00 | 00:00:00 | 00:00:00 | |
| 9A1FER-10 | 2026-09-05 00:30:06 | 46.04269 | 15.25399 | 92° | 31km/h | 17809m | 4.8m/s | 0°C | 0% | 0hPa | 0V | 00:00:00 | 00:00:00 | 00:00:00 | |
| PETON7-10 | 2026-09-05 00:29:55 | 46.04275 | 15.25277 | 91° | 33km/h | 17758m | 4.3m/s | 0°C | 0% | 0hPa | 0V | 00:00:00 | 00:00:00 | 00:00:00 | |
| 9A1FER-10 | 2026-09-05 00:29:51 | 46.04277 | 15.25229 | 95° | 33km/h | 17741m | 4.4m/s | 0°C | 0% | 0hPa | 0V | 00:00:00 | 00:00:00 | 00:00:00 | |
| 9A1FER-3 | 2026-09-05 00:29:40 | 46.04284 | 15.25099 | 94° | 33km/h | 17687m | 5.3m/s | 0°C | 0% | 0hPa | 0V | 00:00:00 | 00:00:00 | 00:00:00 | |
| 9A1FER-10 | 2026-09-05 00:29:36 | 46.04285 | 15.25048 | 87° | 33km/h | 17669m | 4.1m/s | 0°C | 0% | 0hPa | 0V | 00:00:00 | 00:00:00 | 00:00:00 | |
| 9A1FER-3 | 2026-09-05 00:29:25 | 46.04282 | 15.24922 | 85° | 31km/h | 17614m | 5.2m/s | 0°C | 0% | 0hPa | 0V | 00:00:00 | 00:00:00 | 00:00:00 | |
| PETON7-10 | 2026-09-05 00:29:23 | 46.04280 | 15.24898 | 83° | 29km/h | 17604m | 5.3m/s | 0°C | 0% | 0hPa | 0V | 00:00:00 | 00:00:00 | 00:00:00 | |
| 9A1FER-10 | 2026-09-05 00:29:21 | 46.04277 | 15.24875 | 84° | 29km/h | 17595m | 4.9m/s | 0°C | 0% | 0hPa | 0V | 00:00:00 | 00:00:00 | 00:00:00 | |
| 9A1FER-3 | 2026-09-05 00:29:10 | 46.04270 | 15.24759 | 81° | 31km/h | 17540m | 5.6m/s | 0°C | 0% | 0hPa | 0V | 00:00:00 | 00:00:00 | 00:00:00 | |
| PETON7-10 | 2026-09-05 00:29:07 | 46.04267 | 15.24727 | 90° | 31km/h | 17525m | 3.9m/s | 0°C | 0% | 0hPa | 0V | 00:00:00 | 00:00:00 | 00:00:00 | |
| 9A1FER-10 | 2026-09-05 00:29:06 | 46.04266 | 15.24716 | 86° | 31km/h | 17521m | 5.6m/s | 0°C | 0% | 0hPa | 0V | 00:00:00 | 00:00:00 | 00:00:00 | |
| 9A1FER-3 | 2026-09-05 00:28:55 | 46.04268 | 15.24590 | 97° | 31km/h | 17464m | 6.2m/s | 0°C | 0% | 0hPa | 0V | 00:00:00 | 00:00:00 | 00:00:00 | |
| PETON7-10 | 2026-09-05 00:28:52 | 46.04268 | 15.24556 | 80° | 33km/h | 17448m | 3.7m/s | 0°C | 0% | 0hPa | 0V | 00:00:00 | 00:00:00 | 00:00:00 | |
| 9A1FER-10 | 2026-09-05 00:28:51 | 46.04267 | 15.24545 | 81° | 33km/h | 17444m | 5.1m/s | 0°C | 0% | 0hPa | 0V | 00:00:00 | 00:00:00 | 00:00:00 | |
| 9A1FER-3 | 2026-09-05 00:28:40 | 46.04282 | 15.24418 | 107° | 35km/h | 17389m | 4.6m/s | 0°C | 0% | 0hPa | 0V | 00:00:00 | 00:00:00 | 00:00:00 | |
| 9A1FER-10 | 2026-09-05 00:28:36 | 46.04290 | 15.24372 | 110° | 33km/h | 17370m | 5.5m/s | 0°C | 0% | 0hPa | 0V | 00:00:00 | 00:00:00 | 00:00:00 | |
| 9A1FER-3 | 2026-09-05 00:28:25 | 46.04315 | 15.24239 | 88° | 38km/h | 17312m | 4.5m/s | 0°C | 0% | 0hPa | 0V | 00:00:00 | 00:00:00 | 00:00:00 | |
| 9A1FER-10 | 2026-09-05 00:28:21 | 46.04321 | 15.24194 | 103° | 40km/h | 17292m | 4.5m/s | 0°C | 0% | 0hPa | 0V | 00:00:00 | 00:00:00 | 00:00:00 | |
| PETON7-10 | 2026-09-05 00:28:20 | 46.04323 | 15.24181 | 106° | 37km/h | 17287m | 4.8m/s | 0°C | 0% | 0hPa | 0V | 00:00:00 | 00:00:00 | 00:00:00 | |
| 9A1FER-3 | 2026-09-05 00:28:10 | 46.04345 | 15.24038 | 106° | 46km/h | 17239m | 3.5m/s | 0°C | 0% | 0hPa | 0V | 00:00:00 | 00:00:00 | 00:00:00 | |
| 9A1FER-10 | 2026-09-05 00:28:06 | 46.04353 | 15.23974 | 95° | 47km/h | 17218m | 4.5m/s | 0°C | 0% | 0hPa | 0V | 00:00:00 | 00:00:00 | 00:00:00 | |
| 9A1FER-3 | 2026-09-05 00:27:55 | 46.04363 | 15.23791 | 94° | 47km/h | 17163m | 6.7m/s | 0°C | 0% | 0hPa | 0V | 00:00:00 | 00:00:00 | 00:00:00 | |
| 9A1FER-3 | 2026-09-05 00:27:40 | 46.04353 | 15.23536 | 85° | 53km/h | 17090m | 4.5m/s | 0°C | 0% | 0hPa | 0V | 00:00:00 | 00:00:00 | 00:00:00 | |
| 9A1FER-10 | 2026-09-05 00:27:36 | 46.04350 | 15.23461 | 89° | 55km/h | 17070m | 5.6m/s | 0°C | 0% | 0hPa | 0V | 00:00:00 | 00:00:00 | 00:00:00 | |
| 9A1FER-3 | 2026-09-05 00:27:23 | 46.04312 | 15.23215 | 75° | 49km/h | 17006m | 5.6m/s | 0°C | 0% | 0hPa | 0V | 00:00:00 | 00:00:00 | 00:00:00 | |
| 9A1FER-10 | 2026-09-05 00:27:21 | 46.04303 | 15.23174 | 71° | 46km/h | 16997m | 4.4m/s | 0°C | 0% | 0hPa | 0V | 00:00:00 | 00:00:00 | 00:00:00 | |
| 9A1FER-3 | 2026-09-05 00:27:08 | 46.04264 | 15.22965 | 77° | 42km/h | 16924m | 4.8m/s | 0°C | 0% | 0hPa | 0V | 00:00:00 | 00:00:00 | 00:00:00 | |
| 9A1FER-10 | 2026-09-05 00:27:06 | 46.04259 | 15.22933 | 78° | 40km/h | 16913m | 5.2m/s | 0°C | 0% | 0hPa | 0V | 00:00:00 | 00:00:00 | 00:00:00 | |
| 9A1FER-3 | 2026-09-05 00:26:53 | 46.04236 | 15.22744 | 89° | 31km/h | 16841m | 4.4m/s | 0°C | 0% | 0hPa | 0V | 00:00:00 | 00:00:00 | 00:00:00 | |
| 9A1FER-10 | 2026-09-05 00:26:51 | 46.04235 | 15.22720 | 80° | 31km/h | 16830m | 5.4m/s | 0°C | 0% | 0hPa | 0V | 00:00:00 | 00:00:00 | 00:00:00 | |
| 9A1FER-3 | 2026-09-05 00:26:38 | 46.04233 | 15.22575 | 96° | 27km/h | 16762m | 5.5m/s | 0°C | 0% | 0hPa | 0V | 00:00:00 | 00:00:00 | 00:00:00 | |
| 9A1FER-10 | 2026-09-05 00:26:36 | 46.04235 | 15.22548 | 98° | 27km/h | 16751m | 3.6m/s | 0°C | 0% | 0hPa | 0V | 00:00:00 | 00:00:00 | 00:00:00 | |
| 9A1FER-3 | 2026-09-05 00:26:23 | 46.04254 | 15.22426 | 114° | 29km/h | 16683m | 4.6m/s | 0°C | 0% | 0hPa | 0V | 00:00:00 | 00:00:00 | 00:00:00 | |
| 9A1FER-10 | 2026-09-05 00:26:21 | 46.04257 | 15.22407 | 96° | 31km/h | 16672m | 4.6m/s | 0°C | 0% | 0hPa | 0V | 00:00:00 | 00:00:00 | 00:00:00 | |
| 9A1FER-3 | 2026-09-05 00:26:08 | 46.04295 | 15.22275 | 111° | 40km/h | 16606m | 6.4m/s | 0°C | 0% | 0hPa | 0V | 00:00:00 | 00:00:00 | 00:00:00 | |
| 9A1FER-10 | 2026-09-05 00:26:06 | 46.04301 | 15.22250 | 112° | 40km/h | 16596m | 6.7m/s | 0°C | 0% | 0hPa | 0V | 00:00:00 | 00:00:00 | 00:00:00 | |
| 9A1FER-3 | 2026-09-05 00:25:53 | 46.04357 | 15.22077 | 112° | 40km/h | 16533m | 5.0m/s | 0°C | 0% | 0hPa | 0V | 00:00:00 | 00:00:00 | 00:00:00 | |
| 9A1FER-10 | 2026-09-05 00:25:51 | 46.04366 | 15.22054 | 122° | 38km/h | 16523m | 4.0m/s | 0°C | 0% | 0hPa | 0V | 00:00:00 | 00:00:00 | 00:00:00 | |
| 9A1FER-3 | 2026-09-05 00:25:38 | 46.04415 | 15.21882 | 116° | 37km/h | 16458m | 6.5m/s | 0°C | 0% | 0hPa | 0V | 00:00:00 | 00:00:00 | 00:00:00 | |
| 9A1FER-10 | 2026-09-05 00:25:36 | 46.04421 | 15.21858 | 104° | 37km/h | 16449m | 5.9m/s | 0°C | 0% | 0hPa | 0V | 00:00:00 | 00:00:00 | 00:00:00 | |
| 9A1FER-3 | 2026-09-05 00:25:23 | 46.04453 | 15.21692 | 94° | 33km/h | 16385m | 5.0m/s | 0°C | 0% | 0hPa | 0V | 00:00:00 | 00:00:00 | 00:00:00 | |
| 9A1FER-10 | 2026-09-05 00:25:21 | 46.04453 | 15.21666 | 91° | 33km/h | 16375m | 4.2m/s | 0°C | 0% | 0hPa | 0V | 00:00:00 | 00:00:00 | 00:00:00 | |
| 9A1FER-3 | 2026-09-05 00:25:08 | 46.04476 | 15.21520 | 111° | 35km/h | 16317m | 4.1m/s | 0°C | 0% | 0hPa | 0V | 00:00:00 | 00:00:00 | 00:00:00 | |
| 9A1FER-10 | 2026-09-05 00:25:06 | 46.04483 | 15.21497 | 111° | 35km/h | 16308m | 4.6m/s | 0°C | 0% | 0hPa | 0V | 00:00:00 | 00:00:00 | 00:00:00 | |
| 9A1FER-3 | 2026-09-05 00:24:53 | 46.04505 | 15.21338 | 91° | 31km/h | 16249m | 5.2m/s | 0°C | 0% | 0hPa | 0V | 00:00:00 | 00:00:00 | 00:00:00 | |
| 9A1FER-3 | 2026-09-05 00:24:38 | 46.04522 | 15.21174 | 103° | 35km/h | 16182m | 4.3m/s | 0°C | 0% | 0hPa | 0V | 00:00:00 | 00:00:00 | 00:00:00 | |
| 9A1FER-10 | 2026-09-05 00:24:36 | 46.04527 | 15.21151 | 111° | 35km/h | 16173m | 4.2m/s | 0°C | 0% | 0hPa | 0V | 00:00:00 | 00:00:00 | 00:00:00 | |
| 9A1FER-3 | 2026-09-05 00:24:23 | 46.04565 | 15.20991 | 112° | 44km/h | 16109m | 4.0m/s | 0°C | 0% | 0hPa | 0V | 00:00:00 | 00:00:00 | 00:00:00 | |
| 9A1FER-10 | 2026-09-05 00:24:21 | 46.04573 | 15.20967 | 110° | 46km/h | 16100m | 2.8m/s | 0°C | 0% | 0hPa | 0V | 00:00:00 | 00:00:00 | 00:00:00 | |
| 9A1FER-3 | 2026-09-05 00:24:08 | 46.04626 | 15.20772 | 116° | 53km/h | 16041m | 5.3m/s | 0°C | 0% | 0hPa | 0V | 00:00:00 | 00:00:00 | 00:00:00 | |
| 9A1FER-10 | 2026-09-05 00:24:06 | 46.04637 | 15.20741 | 120° | 55km/h | 16032m | 4.6m/s | 0°C | 0% | 0hPa | 0V | 00:00:00 | 00:00:00 | 00:00:00 | |
| 9A1FER-3 | 2026-09-05 00:23:53 | 46.04730 | 15.20520 | 124° | 62km/h | 15972m | 4.5m/s | 0°C | 0% | 0hPa | 0V | 00:00:00 | 00:00:00 | 00:00:00 | |
| 9A1FER-10 | 2026-09-05 00:23:51 | 46.04744 | 15.20484 | 119° | 64km/h | 15963m | 4.3m/s | 0°C | 0% | 0hPa | 0V | 00:00:00 | 00:00:00 | 00:00:00 | |
| 9A1FER-3 | 2026-09-05 00:23:38 | 46.04843 | 15.20220 | 115° | 64km/h | 15906m | 3.1m/s | 0°C | 0% | 0hPa | 0V | 00:00:00 | 00:00:00 | 00:00:00 | |
| 9A1FER-10 | 2026-09-05 00:23:37 | 46.04858 | 15.20178 | 121° | 64km/h | 15897m | 3.2m/s | 0°C | 0% | 0hPa | 0V | 00:00:00 | 00:00:00 | 00:00:00 | |
| 9A1FER-3 | 2026-09-05 00:23:23 | 46.04956 | 15.19918 | 120° | 66km/h | 15835m | 6.1m/s | 0°C | 0% | 0hPa | 0V | 00:00:00 | 00:00:00 | 00:00:00 | |
| 9A1FER-10 | 2026-09-05 00:23:21 | 46.04971 | 15.19875 | 117° | 66km/h | 15825m | 5.8m/s | 0°C | 0% | 0hPa | 0V | 00:00:00 | 00:00:00 | 00:00:00 | |
| 9A1FER-3 | 2026-09-05 00:23:08 | 46.05064 | 15.19596 | 110° | 64km/h | 15765m | 6.1m/s | 0°C | 0% | 0hPa | 0V | 00:00:00 | 00:00:00 | 00:00:00 | |
| 9A1FER-10 | 2026-09-05 00:23:06 | 46.05075 | 15.19549 | 109° | 64km/h | 15756m | 4.0m/s | 0°C | 0% | 0hPa | 0V | 00:00:00 | 00:00:00 | 00:00:00 | |
| 9A1FER-3 | 2026-09-05 00:22:53 | 46.05136 | 15.19259 | 102° | 62km/h | 15694m | 4.9m/s | 0°C | 0% | 0hPa | 0V | 00:00:00 | 00:00:00 | 00:00:00 | |
| 9A1FER-10 | 2026-09-05 00:22:51 | 46.05141 | 15.19217 | 99° | 62km/h | 15683m | 5.6m/s | 0°C | 0% | 0hPa | 0V | 00:00:00 | 00:00:00 | 00:00:00 | |
| 9A1FER-3 | 2026-09-05 00:22:39 | 46.05188 | 15.18932 | 101° | 62km/h | 15622m | 4.2m/s | 0°C | 0% | 0hPa | 0V | 00:00:00 | 00:00:00 | 00:00:00 | |
| 9A1FER-10 | 2026-09-05 00:22:36 | 46.05194 | 15.18889 | 102° | 62km/h | 15613m | 4.9m/s | 0°C | 0% | 0hPa | 0V | 00:00:00 | 00:00:00 | 00:00:00 | |
| 9A1FER-3 | 2026-09-05 00:22:22 | 46.05229 | 15.18582 | 103° | 58km/h | 15546m | 5.5m/s | 0°C | 0% | 0hPa | 0V | 00:00:00 | 00:00:00 | 00:00:00 | |
| 9A1FER-10 | 2026-09-05 00:22:21 | 46.05232 | 15.18560 | 96° | 58km/h | 15541m | 5.1m/s | 0°C | 0% | 0hPa | 0V | 00:00:00 | 00:00:00 | 00:00:00 | |
| 9A1FER-3 | 2026-09-05 00:22:07 | 46.05275 | 15.18269 | 105° | 66km/h | 15478m | 6.4m/s | 0°C | 0% | 0hPa | 0V | 00:00:00 | 00:00:00 | 00:00:00 | |
| 9A1FER-10 | 2026-09-05 00:22:06 | 46.05279 | 15.18246 | 106° | 66km/h | 15472m | 5.0m/s | 0°C | 0% | 0hPa | 0V | 00:00:00 | 00:00:00 | 00:00:00 | |
| 9A1FER-3 | 2026-09-05 00:21:52 | 46.05338 | 15.17922 | 106° | 69km/h | 15399m | 6.8m/s | 0°C | 0% | 0hPa | 0V | 00:00:00 | 00:00:00 | 00:00:00 | |
| 9A1FER-10 | 2026-09-05 00:21:51 | 46.05343 | 15.17899 | 104° | 69km/h | 15394m | 4.7m/s | 0°C | 0% | 0hPa | 0V | 00:00:00 | 00:00:00 | 00:00:00 | |
| 9A1FER-3 | 2026-09-05 00:21:36 | 46.05404 | 15.17533 | 103° | 66km/h | 15318m | 4.4m/s | 0°C | 0% | 0hPa | 0V | 00:00:00 | 00:00:00 | 00:00:00 | |
| 9A1FER-10 | 2026-09-05 00:21:21 | 46.05449 | 15.17180 | 96° | 58km/h | 15247m | 6.7m/s | 0°C | 0% | 0hPa | 0V | 00:00:00 | 00:00:00 | 00:00:00 | |
| 9A1FER-3 | 2026-09-05 00:21:20 | 46.05467 | 15.17158 | 93° | 58km/h | 15243m | 1.1m/s | 0°C | 0% | 0hPa | 0V | 00:00:00 | 00:00:00 | 00:00:00 | |
| 9A1FER-10 | 2026-09-05 00:21:06 | 46.05466 | 15.16867 | 98° | 58km/h | 15171m | 5.0m/s | 0°C | 0% | 0hPa | 0V | 00:00:00 | 00:00:00 | 00:00:00 | |
| 9A1FER-3 | 2026-09-05 00:21:05 | 46.05467 | 15.16847 | 96° | 58km/h | 15166m | 4.7m/s | 0°C | 0% | 0hPa | 0V | 00:00:00 | 00:00:00 | 00:00:00 | |
| 9A1FER-10 | 2026-09-05 00:20:51 | 46.05493 | 15.16567 | 96° | 62km/h | 15099m | 4.2m/s | 0°C | 0% | 0hPa | 0V | 00:00:00 | 00:00:00 | 00:00:00 | |
| 9A1FER-3 | 2026-09-05 00:20:50 | 46.05494 | 15.16528 | 96° | 60km/h | 15093m | 6.3m/s | 0°C | 0% | 0hPa | 0V | 00:00:00 | 00:00:00 | 00:00:00 | |
| 9A1FER-10 | 2026-09-05 00:20:36 | 46.05507 | 15.16215 | 94° | 58km/h | 15017m | 5.0m/s | 0°C | 0% | 0hPa | 0V | 00:00:00 | 00:00:00 | 00:00:00 | |
| 9A1FER-3 | 2026-09-05 00:20:29 | 46.05523 | 15.16063 | 92° | 64km/h | 14977m | 6.0m/s | 0°C | 0% | 0hPa | 0V | 00:00:00 | 00:00:00 | 00:00:00 | |
| 9A1FER-10 | 2026-09-05 00:20:21 | 46.05533 | 15.15893 | 89° | 66km/h | 14936m | 4.4m/s | 0°C | 0% | 0hPa | 0V | 00:00:00 | 00:00:00 | 00:00:00 | |
| 9A1FER-3 | 2026-09-05 00:20:14 | 46.05529 | 15.15720 | 87° | 62km/h | 14902m | 4.8m/s | 0°C | 0% | 0hPa | 0V | 00:00:00 | 00:00:00 | 00:00:00 | |
| 9A1FER-3 | 2026-09-05 00:19:59 | 46.05519 | 15.15393 | 85° | 60km/h | 14817m | 2.7m/s | 0°C | 0% | 0hPa | 0V | 00:00:00 | 00:00:00 | 00:00:00 | |
| 9A1FER-10 | 2026-09-05 00:19:51 | 46.05531 | 15.15209 | 86° | 58km/h | 14774m | 6.2m/s | 0°C | 0% | 0hPa | 0V | 00:00:00 | 00:00:00 | 00:00:00 | |
| 9A1FER-3 | 2026-09-05 00:19:38 | 46.05536 | 15.14926 | 92° | 60km/h | 14702m | 5.6m/s | 0°C | 0% | 0hPa | 0V | 00:00:00 | 00:00:00 | 00:00:00 | |
| 9A1FER-10 | 2026-09-05 00:19:36 | 46.05539 | 15.14888 | 96° | 60km/h | 14691m | 4.9m/s | 0°C | 0% | 0hPa | 0V | 00:00:00 | 00:00:00 | 00:00:00 | |
| 9A1FER-3 | 2026-09-05 00:19:22 | 46.05523 | 15.14581 | 78° | 55km/h | 14625m | 5.6m/s | 0°C | 0% | 0hPa | 0V | 00:00:00 | 00:00:00 | 00:00:00 | |
| 9A1FER-10 | 2026-09-05 00:19:21 | 46.05519 | 15.14560 | 75° | 53km/h | 14619m | 5.3m/s | 0°C | 0% | 0hPa | 0V | 00:00:00 | 00:00:00 | 00:00:00 | |
| 9A1FER-3 | 2026-09-05 00:19:07 | 46.05459 | 15.14301 | 75° | 49km/h | 14551m | 5.5m/s | 0°C | 0% | 0hPa | 0V | 00:00:00 | 00:00:00 | 00:00:00 | |
| 9A1FER-10 | 2026-09-05 00:19:06 | 46.05456 | 15.14284 | 78° | 47km/h | 14545m | 5.5m/s | 0°C | 0% | 0hPa | 0V | 00:00:00 | 00:00:00 | 00:00:00 | |
| 9A1FER-3 | 2026-09-05 00:18:52 | 46.05402 | 15.14054 | 68° | 46km/h | 14478m | 6.8m/s | 0°C | 0% | 0hPa | 0V | 00:00:00 | 00:00:00 | 00:00:00 | |
| 9A1FER-3 | 2026-09-05 00:18:36 | 46.05352 | 15.13798 | 78° | 46km/h | 14404m | 4.9m/s | 0°C | 0% | 0hPa | 0V | 00:00:00 | 00:00:00 | 00:00:00 | |
| 9A1FER-3 | 2026-09-05 00:18:21 | 46.05321 | 15.13560 | 71° | 40km/h | 14331m | 5.4m/s | 0°C | 0% | 0hPa | 0V | 00:00:00 | 00:00:00 | 00:00:00 | |
| 9A1FER-10 | 2026-09-05 00:18:06 | 46.05290 | 15.13349 | 104° | 49km/h | 14259m | 5.5m/s | 0°C | 0% | 0hPa | 0V | 00:00:00 | 00:00:00 | 00:00:00 | |
| 9A1FER-3 | 2026-09-05 00:18:04 | 46.05292 | 15.13319 | 86° | 47km/h | 14250m | 2.7m/s | 0°C | 0% | 0hPa | 0V | 00:00:00 | 00:00:00 | 00:00:00 | |
| 9A1FER-3 | 2026-09-05 00:17:49 | 46.05280 | 15.13059 | 87° | 68km/h | 14167m | 0.5m/s | 0°C | 0% | 0hPa | 0V | 00:00:00 | 00:00:00 | 00:00:00 | |
| 9A1FER-10 | 2026-09-05 00:17:36 | 46.05301 | 15.12748 | 102° | 78km/h | 14087m | 4.9m/s | 0°C | 0% | 0hPa | 0V | 00:00:00 | 00:00:00 | 00:00:00 | |
| 9A1FER-3 | 2026-09-05 00:17:34 | 46.05307 | 15.12693 | 97° | 78km/h | 14077m | 5.0m/s | 0°C | 0% | 0hPa | 0V | 00:00:00 | 00:00:00 | 00:00:00 | |
| 9A1FER-10 | 2026-09-05 00:17:21 | 46.05320 | 15.12326 | 96° | 77km/h | 14017m | 5.0m/s | 0°C | 0% | 0hPa | 0V | 00:00:00 | 00:00:00 | 00:00:00 | |
| 9A1FER-3 | 2026-09-05 00:17:19 | 46.05321 | 15.12270 | 90° | 77km/h | 14008m | 4.8m/s | 0°C | 0% | 0hPa | 0V | 00:00:00 | 00:00:00 | 00:00:00 | |
| 9A1FER-10 | 2026-09-05 00:17:06 | 46.05311 | 15.11907 | 87° | 82km/h | 13946m | 5.5m/s | 0°C | 0% | 0hPa | 0V | 00:00:00 | 00:00:00 | 00:00:00 | |
| 9A1FER-3 | 2026-09-05 00:17:04 | 46.05310 | 15.11849 | 91° | 80km/h | 13937m | 5.0m/s | 0°C | 0% | 0hPa | 0V | 00:00:00 | 00:00:00 | 00:00:00 | |
| 9A1FER-10 | 2026-09-05 00:16:51 | 46.05335 | 15.11464 | 93° | 86km/h | 13870m | 5.9m/s | 0°C | 0% | 0hPa | 0V | 00:00:00 | 00:00:00 | 00:00:00 | |
| 9A1FER-10 | 2026-09-05 00:16:36 | 46.05351 | 15.10998 | 86° | 86km/h | 13786m | 3.4m/s | 0°C | 0% | 0hPa | 0V | 00:00:00 | 00:00:00 | 00:00:00 | |
| 9A1FER-3 | 2026-09-05 00:16:33 | 46.05349 | 15.10906 | 93° | 86km/h | 13771m | 6.0m/s | 0°C | 0% | 0hPa | 0V | 00:00:00 | 00:00:00 | 00:00:00 | |
| 9A1FER-10 | 2026-09-05 00:16:21 | 46.05352 | 15.10533 | 87° | 84km/h | 13712m | 5.0m/s | 0°C | 0% | 0hPa | 0V | 00:00:00 | 00:00:00 | 00:00:00 | |
| 9A1FER-3 | 2026-09-05 00:16:18 | 46.05353 | 15.10443 | 96° | 84km/h | 13697m | 5.1m/s | 0°C | 0% | 0hPa | 0V | 00:00:00 | 00:00:00 | 00:00:00 | |
| 9A1FER-10 | 2026-09-05 00:16:06 | 46.05369 | 15.10072 | 96° | 88km/h | 13635m | 3.2m/s | 0°C | 0% | 0hPa | 0V | 00:00:00 | 00:00:00 | 00:00:00 | |
| 9A1FER-3 | 2026-09-05 00:16:03 | 46.05375 | 15.09981 | 93° | 88km/h | 13622m | 4.9m/s | 0°C | 0% | 0hPa | 0V | 00:00:00 | 00:00:00 | 00:00:00 | |
| 9A1FER-10 | 2026-09-05 00:15:51 | 46.05393 | 15.09598 | 92° | 93km/h | 13566m | 5.4m/s | 0°C | 0% | 0hPa | 0V | 00:00:00 | 00:00:00 | 00:00:00 | |
| 9A1FER-3 | 2026-09-05 00:15:47 | 46.05400 | 15.09471 | 100° | 95km/h | 13549m | 3.8m/s | 0°C | 0% | 0hPa | 0V | 00:00:00 | 00:00:00 | 00:00:00 | |
| 9A1FER-10 | 2026-09-05 00:15:36 | 46.05433 | 15.09097 | 98° | 97km/h | 13498m | 4.7m/s | 0°C | 0% | 0hPa | 0V | 00:00:00 | 00:00:00 | 00:00:00 | |
| 9A1FER-3 | 2026-09-05 00:15:32 | 46.05449 | 15.08959 | 98° | 97km/h | 13477m | 4.4m/s | 0°C | 0% | 0hPa | 0V | 00:00:00 | 00:00:00 | 00:00:00 | |
| 9A1FER-10 | 2026-09-05 00:15:21 | 46.05490 | 15.08581 | 98° | 97km/h | 13423m | 4.4m/s | 0°C | 0% | 0hPa | 0V | 00:00:00 | 00:00:00 | 00:00:00 | |
| 9A1FER-3 | 2026-09-05 00:15:17 | 46.05506 | 15.08440 | 100° | 97km/h | 13404m | 6.7m/s | 0°C | 0% | 0hPa | 0V | 00:00:00 | 00:00:00 | 00:00:00 | |
| 9A1FER-10 | 2026-09-05 00:15:06 | 46.05545 | 15.08061 | 97° | 97km/h | 13352m | 5.1m/s | 0°C | 0% | 0hPa | 0V | 00:00:00 | 00:00:00 | 00:00:00 | |
| 9A1FER-10 | 2026-09-05 00:14:51 | 46.05592 | 15.07540 | 97° | 97km/h | 13280m | 4.1m/s | 0°C | 0% | 0hPa | 0V | 00:00:00 | 00:00:00 | 00:00:00 | |
| 9A1FER-10 | 2026-09-05 00:14:36 | 46.05642 | 15.07022 | 100° | 97km/h | 13209m | 5.7m/s | 0°C | 0% | 0hPa | 0V | 00:00:00 | 00:00:00 | 00:00:00 | |
| 9A1FER-3 | 2026-09-05 00:14:30 | 46.05664 | 15.06815 | 96° | 97km/h | 13179m | 6.0m/s | 0°C | 0% | 0hPa | 0V | 00:00:00 | 00:00:00 | 00:00:00 | |
| 9A1FER-10 | 2026-09-05 00:14:21 | 46.05697 | 15.06499 | 99° | 97km/h | 13139m | 4.2m/s | 0°C | 0% | 0hPa | 0V | 00:00:00 | 00:00:00 | 00:00:00 | |
| 9A1FER-3 | 2026-09-05 00:14:15 | 46.05718 | 15.06291 | 101° | 93km/h | 13109m | 3.5m/s | 0°C | 0% | 0hPa | 0V | 00:00:00 | 00:00:00 | 00:00:00 | |
| 9A1FER-10 | 2026-09-05 00:14:06 | 46.05752 | 15.05983 | 100° | 95km/h | 13066m | 6.0m/s | 0°C | 0% | 0hPa | 0V | 00:00:00 | 00:00:00 | 00:00:00 | |
| 9A1FER-3 | 2026-09-05 00:13:57 | 46.05781 | 15.05677 | 99° | 93km/h | 13023m | 5.2m/s | 0°C | 0% | 0hPa | 0V | 00:00:00 | 00:00:00 | 00:00:00 | |
| OE3JTB-15 | 2026-09-05 00:13:56 | 46.05784 | 15.05643 | 97° | 88km/h | 13019m | 3.6m/s | 0°C | 0% | 0hPa | 0V | 00:00:00 | 00:00:00 | 00:00:00 | |
| 9A1FER-10 | 2026-09-05 00:13:51 | 46.05796 | 15.05473 | 95° | 93km/h | 12995m | 6.5m/s | 0°C | 0% | 0hPa | 0V | 00:00:00 | 00:00:00 | 00:00:00 | |
| 9A1FER-3 | 2026-09-05 00:13:41 | 46.05816 | 15.05134 | 96° | 91km/h | 12945m | 2.9m/s | 0°C | 0% | 0hPa | 0V | 00:00:00 | 00:00:00 | 00:00:00 | |
| 9A1FER-10 | 2026-09-05 00:13:36 | 46.05825 | 15.04968 | 94° | 93km/h | 12921m | 4.9m/s | 0°C | 0% | 0hPa | 0V | 00:00:00 | 00:00:00 | 00:00:00 | |
| 9A1FER-3 | 2026-09-05 00:13:26 | 46.05845 | 15.04638 | 98° | 95km/h | 12871m | 6.0m/s | 0°C | 0% | 0hPa | 0V | 00:00:00 | 00:00:00 | 00:00:00 | |
| 9A1FER-10 | 2026-09-05 00:13:21 | 46.05853 | 15.04461 | 89° | 89km/h | 12848m | 4.1m/s | 0°C | 0% | 0hPa | 0V | 00:00:00 | 00:00:00 | 00:00:00 | |
| 9A1FER-3 | 2026-09-05 00:13:11 | 46.05869 | 15.04124 | 95° | 89km/h | 12793m | 3.4m/s | 0°C | 0% | 0hPa | 0V | 00:00:00 | 00:00:00 | 00:00:00 | |
| 9A1FER-10 | 2026-09-05 00:13:06 | 46.05872 | 15.03971 | 90° | 93km/h | 12768m | 2.7m/s | 0°C | 0% | 0hPa | 0V | 00:00:00 | 00:00:00 | 00:00:00 | |
| 9A1FER-3 | 2026-09-05 00:12:56 | 46.05885 | 15.03640 | 98° | 93km/h | 12715m | 6.8m/s | 0°C | 0% | 0hPa | 0V | 00:00:00 | 00:00:00 | 00:00:00 | |
| 9A1FER-10 | 2026-09-05 00:12:51 | 46.05896 | 15.03467 | 86° | 91km/h | 12692m | 4.8m/s | 0°C | 0% | 0hPa | 0V | 00:00:00 | 00:00:00 | 00:00:00 | |
| 9A1FER-3 | 2026-09-05 00:12:41 | 46.05900 | 15.03133 | 88° | 91km/h | 12644m | 3.9m/s | 0°C | 0% | 0hPa | 0V | 00:00:00 | 00:00:00 | 00:00:00 | |
| 9A1FER-10 | 2026-09-05 00:12:36 | 46.05902 | 15.02968 | 93° | 89km/h | 12620m | 6.3m/s | 0°C | 0% | 0hPa | 0V | 00:00:00 | 00:00:00 | 00:00:00 | |
| 9A1FER-3 | 2026-09-05 00:12:26 | 46.05905 | 15.02640 | 90° | 88km/h | 12572m | 4.9m/s | 0°C | 0% | 0hPa | 0V | 00:00:00 | 00:00:00 | 00:00:00 | |
| 9A1FER-10 | 2026-09-05 00:12:21 | 46.05902 | 15.02475 | 90° | 88km/h | 12549m | 2.9m/s | 0°C | 0% | 0hPa | 0V | 00:00:00 | 00:00:00 | 00:00:00 | |
| 9A1FER-3 | 2026-09-05 00:12:11 | 46.05896 | 15.02152 | 90° | 88km/h | 12500m | 3.1m/s | 0°C | 0% | 0hPa | 0V | 00:00:00 | 00:00:00 | 00:00:00 | |
| 9A1FER-10 | 2026-09-05 00:12:06 | 46.05897 | 15.01996 | 90° | 86km/h | 12478m | 3.5m/s | 0°C | 0% | 0hPa | 0V | 00:00:00 | 00:00:00 | 00:00:00 | |
| 9A1FER-3 | 2026-09-05 00:11:54 | 46.05884 | 15.01616 | 85° | 86km/h | 12424m | 5.5m/s | 0°C | 0% | 0hPa | 0V | 00:00:00 | 00:00:00 | 00:00:00 | |
| 9A1FER-10 | 2026-09-05 00:11:51 | 46.05882 | 15.01523 | 90° | 86km/h | 12411m | 3.6m/s | 0°C | 0% | 0hPa | 0V | 00:00:00 | 00:00:00 | 00:00:00 | |
| 9A1FER-3 | 2026-09-05 00:11:39 | 46.05856 | 15.01151 | 86° | 80km/h | 12359m | 4.9m/s | 0°C | 0% | 0hPa | 0V | 00:00:00 | 00:00:00 | 00:00:00 | |
| 9A1FER-10 | 2026-09-05 00:11:36 | 46.05851 | 15.01061 | 86° | 80km/h | 12345m | 5.6m/s | 0°C | 0% | 0hPa | 0V | 00:00:00 | 00:00:00 | 00:00:00 | |
| 9A1FER-3 | 2026-09-05 00:11:24 | 46.05817 | 15.00715 | 84° | 80km/h | 12296m | 4.7m/s | 0°C | 0% | 0hPa | 0V | 00:00:00 | 00:00:00 | 00:00:00 | |
| 9A1FER-10 | 2026-09-05 00:11:21 | 46.05809 | 15.00628 | 85° | 82km/h | 12284m | 3.4m/s | 0°C | 0% | 0hPa | 0V | 00:00:00 | 00:00:00 | 00:00:00 | |
| 9A1FER-3 | 2026-09-05 00:11:09 | 46.05778 | 15.00281 | 81° | 84km/h | 12234m | 3.8m/s | 0°C | 0% | 0hPa | 0V | 00:00:00 | 00:00:00 | 00:00:00 | |
| 9A1FER-10 | 2026-09-05 00:11:06 | 46.05764 | 15.00189 | 78° | 82km/h | 12222m | 3.7m/s | 0°C | 0% | 0hPa | 0V | 00:00:00 | 00:00:00 | 00:00:00 | |
| 9A1FER-3 | 2026-09-05 00:10:54 | 46.05715 | 14.99839 | 79° | 80km/h | 12172m | 6.0m/s | 0°C | 0% | 0hPa | 0V | 00:00:00 | 00:00:00 | 00:00:00 | |
| 9A1FER-10 | 2026-09-05 00:10:51 | 46.05704 | 14.99754 | 80° | 82km/h | 12158m | 4.5m/s | 0°C | 0% | 0hPa | 0V | 00:00:00 | 00:00:00 | 00:00:00 | |
| 9A1FER-3 | 2026-09-05 00:10:39 | 46.05651 | 14.99407 | 78° | 78km/h | 12111m | 3.7m/s | 0°C | 0% | 0hPa | 0V | 00:00:00 | 00:00:00 | 00:00:00 | |
| 9A1FER-10 | 2026-09-05 00:10:36 | 46.05636 | 14.99323 | 77° | 78km/h | 12096m | 5.4m/s | 0°C | 0% | 0hPa | 0V | 00:00:00 | 00:00:00 | 00:00:00 | |
| 9A1FER-3 | 2026-09-05 00:10:24 | 46.05595 | 14.98989 | 80° | 75km/h | 12043m | 3.3m/s | 0°C | 0% | 0hPa | 0V | 00:00:00 | 00:00:00 | 00:00:00 | |
| 9A1FER-10 | 2026-09-05 00:10:21 | 46.05585 | 14.98907 | 78° | 75km/h | 12030m | 5.6m/s | 0°C | 0% | 0hPa | 0V | 00:00:00 | 00:00:00 | 00:00:00 | |
| 9A1FER-3 | 2026-09-05 00:10:09 | 46.05542 | 14.98586 | 81° | 77km/h | 11971m | 4.0m/s | 0°C | 0% | 0hPa | 0V | 00:00:00 | 00:00:00 | 00:00:00 | |
| 9A1FER-10 | 2026-09-05 00:10:06 | 46.05533 | 14.98502 | 82° | 77km/h | 11960m | 3.2m/s | 0°C | 0% | 0hPa | 0V | 00:00:00 | 00:00:00 | 00:00:00 | |
| 9A1FER-3 | 2026-09-05 00:09:54 | 46.05499 | 14.98170 | 82° | 78km/h | 11894m | 2.9m/s | 0°C | 0% | 0hPa | 0V | 00:00:00 | 00:00:00 | 00:00:00 | |
| 9A1FER-10 | 2026-09-05 00:09:51 | 46.05490 | 14.98090 | 79° | 78km/h | 11880m | 5.8m/s | 0°C | 0% | 0hPa | 0V | 00:00:00 | 00:00:00 | 00:00:00 | |
| 9A1FER-3 | 2026-09-05 00:09:39 | 46.05459 | 14.97749 | 83° | 78km/h | 11824m | 5.8m/s | 0°C | 0% | 0hPa | 0V | 00:00:00 | 00:00:00 | 00:00:00 | |
| 9A1FER-10 | 2026-09-05 00:09:36 | 46.05453 | 14.97667 | 84° | 80km/h | 11803m | 5.6m/s | 0°C | 0% | 0hPa | 0V | 00:00:00 | 00:00:00 | 00:00:00 | |
| 9A1FER-3 | 2026-09-05 00:09:24 | 46.05427 | 14.97320 | 79° | 80km/h | 11744m | 3.8m/s | 0°C | 0% | 0hPa | 0V | 00:00:00 | 00:00:00 | 00:00:00 | |
| 9A1FER-10 | 2026-09-05 00:09:21 | 46.05418 | 14.97236 | 86° | 80km/h | 11732m | 3.7m/s | 0°C | 0% | 0hPa | 0V | 00:00:00 | 00:00:00 | 00:00:00 | |
| 9A1FER-3 | 2026-09-05 00:09:09 | 46.05408 | 14.96887 | 90° | 80km/h | 11675m | 5.6m/s | 0°C | 0% | 0hPa | 0V | 00:00:00 | 00:00:00 | 00:00:00 | |
| 9A1FER-10 | 2026-09-05 00:09:06 | 46.05406 | 14.96799 | 86° | 80km/h | 11660m | 4.5m/s | 0°C | 0% | 0hPa | 0V | 00:00:00 | 00:00:00 | 00:00:00 | |
| 9A1FER-3 | 2026-09-05 00:08:54 | 46.05394 | 14.96449 | 87° | 84km/h | 11607m | 4.5m/s | 0°C | 0% | 0hPa | 0V | 00:00:00 | 00:00:00 | 00:00:00 | |
| 9A1FER-10 | 2026-09-05 00:08:51 | 46.05392 | 14.96359 | 90° | 84km/h | 11594m | 4.3m/s | 0°C | 0% | 0hPa | 0V | 00:00:00 | 00:00:00 | 00:00:00 | |
| 9A1FER-3 | 2026-09-05 00:08:39 | 46.05386 | 14.95997 | 91° | 84km/h | 11542m | 3.9m/s | 0°C | 0% | 0hPa | 0V | 00:00:00 | 00:00:00 | 00:00:00 | |
| 9A1FER-10 | 2026-09-05 00:08:36 | 46.05388 | 14.95906 | 91° | 84km/h | 11529m | 3.8m/s | 0°C | 0% | 0hPa | 0V | 00:00:00 | 00:00:00 | 00:00:00 | |
| 9A1FER-3 | 2026-09-05 00:08:24 | 46.05390 | 14.95537 | 92° | 84km/h | 11478m | 3.4m/s | 0°C | 0% | 0hPa | 0V | 00:00:00 | 00:00:00 | 00:00:00 | |
| 9A1FER-10 | 2026-09-05 00:08:21 | 46.05391 | 14.95444 | 92° | 84km/h | 11464m | 6.5m/s | 0°C | 0% | 0hPa | 0V | 00:00:00 | 00:00:00 | 00:00:00 | |
| 9A1FER-3 | 2026-09-05 00:08:16 | 46.05397 | 14.95078 | 90° | 88km/h | 11412m | 3.3m/s | 0°C | 0% | 0hPa | 0V | 00:00:00 | 00:00:00 | 00:00:00 | |
| 9A1FER-10 | 2026-09-05 00:07:34 | 46.05395 | 14.94005 | 87° | 78km/h | 11255m | 4.9m/s | 0°C | 0% | 0hPa | 0V | 00:00:00 | 00:00:00 | 00:00:00 | |
| 9A1FER-3 | 2026-09-05 00:07:24 | 46.05379 | 14.93726 | 88° | 77km/h | 11216m | 4.3m/s | 0°C | 0% | 0hPa | 0V | 00:00:00 | 00:00:00 | 00:00:00 | |
| 9A1FER-10 | 2026-09-05 00:07:19 | 46.05371 | 14.93584 | 85° | 75km/h | 11193m | 4.6m/s | 0°C | 0% | 0hPa | 0V | 00:00:00 | 00:00:00 | 00:00:00 | |
| 9A1FER-3 | 2026-09-05 00:07:09 | 46.05345 | 14.93310 | 83° | 75km/h | 11149m | 5.7m/s | 0°C | 0% | 0hPa | 0V | 00:00:00 | 00:00:00 | 00:00:00 | |
| 9A1FER-10 | 2026-09-05 00:07:04 | 46.05330 | 14.93179 | 85° | 77km/h | 11124m | 2.7m/s | 0°C | 0% | 0hPa | 0V | 00:00:00 | 00:00:00 | 00:00:00 | |
| 9A1FER-3 | 2026-09-05 00:06:54 | 46.05316 | 14.92901 | 86° | 78km/h | 11080m | 5.4m/s | 0°C | 0% | 0hPa | 0V | 00:00:00 | 00:00:00 | 00:00:00 | |
| 9A1FER-3 | 2026-09-05 00:06:39 | 46.05308 | 14.92475 | 88° | 77km/h | 11013m | 4.5m/s | 0°C | 0% | 0hPa | 0V | 00:00:00 | 00:00:00 | 00:00:00 | |
| 9A1FER-3 | 2026-09-05 00:06:24 | 46.05298 | 14.92061 | 88° | 80km/h | 10948m | 2.9m/s | 0°C | 0% | 0hPa | 0V | 00:00:00 | 00:00:00 | 00:00:00 | |
| 9A1FER-10 | 2026-09-05 00:06:21 | 46.05296 | 14.91977 | 89° | 80km/h | 10933m | 5.2m/s | 0°C | 0% | 0hPa | 0V | 00:00:00 | 00:00:00 | 00:00:00 | |
| 9A1FER-3 | 2026-09-05 00:06:09 | 46.05295 | 14.91627 | 90° | 78km/h | 10878m | 5.6m/s | 0°C | 0% | 0hPa | 0V | 00:00:00 | 00:00:00 | 00:00:00 | |
| 9A1FER-10 | 2026-09-05 00:06:06 | 46.05292 | 14.91543 | 87° | 78km/h | 10862m | 3.5m/s | 0°C | 0% | 0hPa | 0V | 00:00:00 | 00:00:00 | 00:00:00 | |
| 9A1FER-3 | 2026-09-05 00:05:54 | 46.05295 | 14.91202 | 91° | 77km/h | 10805m | 4.5m/s | 0°C | 0% | 0hPa | 0V | 00:00:00 | 00:00:00 | 00:00:00 | |
| 9A1FER-10 | 2026-09-05 00:05:51 | 46.05299 | 14.91119 | 91° | 78km/h | 10792m | 2.4m/s | 0°C | 0% | 0hPa | 0V | 00:00:00 | 00:00:00 | 00:00:00 | |
| 9A1FER-3 | 2026-09-05 00:05:39 | 46.05307 | 14.90782 | 92° | 80km/h | 10741m | 3.4m/s | 0°C | 0% | 0hPa | 0V | 00:00:00 | 00:00:00 | 00:00:00 | |
| 9A1FER-10 | 2026-09-05 00:05:36 | 46.05311 | 14.90693 | 95° | 80km/h | 10728m | 3.8m/s | 0°C | 0% | 0hPa | 0V | 00:00:00 | 00:00:00 | 00:00:00 | |
| 9A1FER-3 | 2026-09-05 00:05:24 | 46.05323 | 14.90345 | 93° | 78km/h | 10674m | 4.9m/s | 0°C | 0% | 0hPa | 0V | 00:00:00 | 00:00:00 | 00:00:00 | |
| 9A1FER-10 | 2026-09-05 00:05:21 | 46.05327 | 14.90258 | 96° | 78km/h | 10663m | 3.7m/s | 0°C | 0% | 0hPa | 0V | 00:00:00 | 00:00:00 | 00:00:00 | |
| 9A1FER-3 | 2026-09-05 00:05:09 | 46.05354 | 14.89918 | 98° | 80km/h | 10606m | 4.7m/s | 0°C | 0% | 0hPa | 0V | 00:00:00 | 00:00:00 | 00:00:00 | |
| 9A1FER-10 | 2026-09-05 00:05:05 | 46.05364 | 14.89803 | 98° | 84km/h | 10587m | 3.6m/s | 0°C | 0% | 0hPa | 0V | 00:00:00 | 00:00:00 | 00:00:00 | |
| 9A1FER-3 | 2026-09-05 00:04:54 | 46.05389 | 14.89478 | 95° | 80km/h | 10537m | 4.3m/s | 0°C | 0% | 0hPa | 0V | 00:00:00 | 00:00:00 | 00:00:00 | |
| 9A1FER-10 | 2026-09-05 00:04:16 | 46.05494 | 14.88385 | 99° | 78km/h | 10368m | 7.3m/s | 0°C | 0% | 0hPa | 0V | 00:00:00 | 00:00:00 | 00:00:00 | |
| 9A1FER-3 | 2026-09-05 00:04:11 | 46.05512 | 14.88211 | 100° | 80km/h | 10342m | 5.8m/s | 0°C | 0% | 0hPa | 0V | 00:00:00 | 00:00:00 | 00:00:00 | |
| 9A1FER-10 | 2026-09-05 00:03:59 | 46.05546 | 14.87897 | 100° | 80km/h | 10293m | 5.2m/s | 0°C | 0% | 0hPa | 0V | 00:00:00 | 00:00:00 | 00:00:00 | |
| 9A1FER-3 | 2026-09-05 00:03:51 | 46.05570 | 14.87662 | 97° | 78km/h | 10259m | 5.1m/s | 0°C | 0% | 0hPa | 0V | 00:00:00 | 00:00:00 | 00:00:00 | |
| 9A1FER-10 | 2026-09-05 00:03:44 | 46.05594 | 14.87464 | 99° | 77km/h | 10229m | 2.3m/s | 0°C | 0% | 0hPa | 0V | 00:00:00 | 00:00:00 | 00:00:00 | |
| 9A1FER-3 | 2026-09-05 00:03:37 | 46.05620 | 14.87240 | 98° | 77km/h | 10196m | 5.6m/s | 0°C | 0% | 0hPa | 0V | 00:00:00 | 00:00:00 | 00:00:00 | |
| 9A1FER-10 | 2026-09-05 00:03:29 | 46.05638 | 14.87051 | 96° | 73km/h | 10164m | 6.8m/s | 0°C | 0% | 0hPa | 0V | 00:00:00 | 00:00:00 | 00:00:00 | |
| 9A1FER-3 | 2026-09-05 00:03:21 | 46.05662 | 14.86831 | 98° | 77km/h | 10131m | 4.9m/s | 0°C | 0% | 0hPa | 0V | 00:00:00 | 00:00:00 | 00:00:00 | |
| 9A1FER-3 | 2026-09-05 00:03:06 | 46.05716 | 14.86418 | 101° | 80km/h | 10066m | 5.1m/s | 0°C | 0% | 0hPa | 0V | 00:00:00 | 00:00:00 | 00:00:00 | |
| 9A1FER-3 | 2026-09-05 00:02:56 | 46.05780 | 14.85993 | 101° | 77km/h | 10000m | 4.7m/s | 0°C | 0% | 0hPa | 0V | 00:00:00 | 00:00:00 | 00:00:00 | |
| 9A1FER-3 | 2026-09-05 00:02:38 | 46.05844 | 14.85588 | 103° | 77km/h | 9934m | 4.8m/s | 0°C | 0% | 0hPa | 0V | 00:00:00 | 00:00:00 | 00:00:00 | |
| 9A1FER-3 | 2026-09-05 00:02:22 | 46.05901 | 14.85180 | 104° | 78km/h | 9868m | 3.3m/s | 0°C | 0% | 0hPa | 0V | 00:00:00 | 00:00:00 | 00:00:00 | |
| 9A1FER-3 | 2026-09-05 00:02:11 | 46.05958 | 14.84758 | 99° | 78km/h | 9799m | 3.2m/s | 0°C | 0% | 0hPa | 0V | 00:00:00 | 00:00:00 | 00:00:00 | |
| 9A1FER-3 | 2026-09-05 00:01:56 | 46.06018 | 14.84343 | 105° | 78km/h | 9719m | 5.9m/s | 0°C | 0% | 0hPa | 0V | 00:00:00 | 00:00:00 | 00:00:00 | |
| 9A1FER-3 | 2026-09-05 00:01:39 | 46.06080 | 14.83935 | 102° | 77km/h | 9637m | 4.9m/s | 0°C | 0% | 0hPa | 0V | 00:00:00 | 00:00:00 | 00:00:00 | |
| 9A1FER-3 | 2026-09-05 00:00:45 | 46.06278 | 14.82491 | 100° | 75km/h | 9409m | 5.0m/s | 0°C | 0% | 0hPa | 0V | 00:00:00 | 00:00:00 | 00:00:00 | |
| 9A1FER-3 | 2026-09-05 00:00:28 | 46.06327 | 14.82069 | 97° | 73km/h | 9343m | 3.8m/s | 0°C | 0% | 0hPa | 0V | 00:00:00 | 00:00:00 | 00:00:00 | |
| 9A1FER-3 | 2026-09-05 00:00:14 | 46.06381 | 14.81674 | 102° | 75km/h | 9279m | 4.5m/s | 0°C | 0% | 0hPa | 0V | 00:00:00 | 00:00:00 | 00:00:00 | |
| 9A1FER-3 | 2026-09-04 23:59:58 | 46.06449 | 14.81275 | 101° | 77km/h | 9215m | 4.9m/s | 0°C | 0% | 0hPa | 0V | 00:00:00 | 00:00:00 | 00:00:00 | |
| 9A1FER-3 | 2026-09-04 23:59:43 | 46.06506 | 14.80865 | 103° | 75km/h | 9151m | 3.4m/s | 0°C | 0% | 0hPa | 0V | 00:00:00 | 00:00:00 | 00:00:00 | |
| 9A1FER-3 | 2026-09-04 23:59:29 | 46.06561 | 14.80461 | 100° | 77km/h | 9085m | 4.0m/s | 0°C | 0% | 0hPa | 0V | 00:00:00 | 00:00:00 | 00:00:00 | |
| 9A1FER-3 | 2026-09-04 23:59:13 | 46.06601 | 14.80049 | 98° | 77km/h | 9018m | 3.8m/s | 0°C | 0% | 0hPa | 0V | 00:00:00 | 00:00:00 | 00:00:00 | |
| 9A1FER-3 | 2026-09-04 23:58:43 | 46.06659 | 14.79218 | 95° | 77km/h | 8889m | 6.1m/s | 0°C | 0% | 0hPa | 0V | 00:00:00 | 00:00:00 | 00:00:00 | |
| 9A1FER-3 | 2026-09-04 23:58:28 | 46.06682 | 14.78801 | 91° | 77km/h | 8826m | 5.7m/s | 0°C | 0% | 0hPa | 0V | 00:00:00 | 00:00:00 | 00:00:00 | |
| 9A1FER-3 | 2026-09-04 23:58:13 | 46.06694 | 14.78386 | 99° | 75km/h | 8757m | 5.5m/s | 0°C | 0% | 0hPa | 0V | 00:00:00 | 00:00:00 | 00:00:00 | |
| 9A1FER-3 | 2026-09-04 23:56:42 | 46.06895 | 14.75773 | 103° | 77km/h | 8354m | 3.1m/s | 0°C | 0% | 0hPa | 0V | 00:00:00 | 00:00:00 | 00:00:00 | |
| 9A1FER-3 | 2026-09-04 23:56:27 | 46.06934 | 14.75368 | 102° | 73km/h | 8283m | 3.9m/s | 0°C | 0% | 0hPa | 0V | 00:00:00 | 00:00:00 | 00:00:00 | |
| 9A1FER-3 | 2026-09-04 23:56:12 | 46.06970 | 14.74978 | 98° | 69km/h | 8209m | 5.8m/s | 0°C | 0% | 0hPa | 0V | 00:00:00 | 00:00:00 | 00:00:00 | |
| 9A1FER-3 | 2026-09-04 23:55:57 | 46.06994 | 14.74602 | 86° | 66km/h | 8141m | 3.7m/s | 0°C | 0% | 0hPa | 0V | 00:00:00 | 00:00:00 | 00:00:00 | |
| 9A1FER-3 | 2026-09-04 23:55:42 | 46.07005 | 14.74238 | 95° | 68km/h | 8083m | 3.9m/s | 0°C | 0% | 0hPa | 0V | 00:00:00 | 00:00:00 | 00:00:00 | |
| 9A1FER-3 | 2026-09-04 23:55:27 | 46.07025 | 14.73876 | 95° | 68km/h | 8004m | 3.6m/s | 0°C | 0% | 0hPa | 0V | 00:00:00 | 00:00:00 | 00:00:00 | |
| 9A1FER-10 | 2026-09-04 23:55:19 | 46.07031 | 14.73660 | 90° | 73km/h | 7971m | 5.1m/s | 0°C | 0% | 0hPa | 0V | 00:00:00 | 00:00:00 | 00:00:00 | |
| 9A1FER-3 | 2026-09-04 23:55:11 | 46.07033 | 14.73487 | 95° | 69km/h | 7937m | 3.5m/s | 0°C | 0% | 0hPa | 0V | 00:00:00 | 00:00:00 | 00:00:00 | |
| 9A1FER-3 | 2026-09-04 23:54:56 | 46.07049 | 14.73103 | 97° | 62km/h | 7860m | 1.7m/s | 0°C | 0% | 0hPa | 0V | 00:00:00 | 00:00:00 | 00:00:00 | |
| 9A1FER-3 | 2026-09-04 23:54:40 | 46.07063 | 14.72732 | 90° | 68km/h | 7788m | 3.3m/s | 0°C | 0% | 0hPa | 0V | 00:00:00 | 00:00:00 | 00:00:00 | |
| 9A1FER-3 | 2026-09-04 23:54:23 | 46.07103 | 14.72317 | 102° | 66km/h | 7708m | 3.8m/s | 0°C | 0% | 0hPa | 0V | 00:00:00 | 00:00:00 | 00:00:00 | |
| 9A1FER-10 | 2026-09-04 23:54:13 | 46.07124 | 14.72084 | 107° | 66km/h | 7661m | 3.1m/s | 0°C | 0% | 0hPa | 0V | 00:00:00 | 00:00:00 | 00:00:00 | |
| 9A1FER-3 | 2026-09-04 23:54:08 | 46.07136 | 14.71962 | 95° | 66km/h | 7641m | 4.4m/s | 0°C | 0% | 0hPa | 0V | 00:00:00 | 00:00:00 | 00:00:00 | |
| 9A1FER-10 | 2026-09-04 23:53:56 | 46.07159 | 14.71674 | 96° | 68km/h | 7579m | 5.2m/s | 0°C | 0% | 0hPa | 0V | 00:00:00 | 00:00:00 | 00:00:00 |